Data for 09/12/2010

Time Sea-Level Adjusted Pressure Absolute Pressure Temperature Relative Humidity Dew Point Precipitation   
(mb) (inHg) (mb) (inHg) (C) (F) (%) (C) (F) (mm) (in)
00:01 1022 30.18 851 25.13 9.9 49.9 55 1.4 34.6 10.45 0.411
00:02 1022 30.18 851 25.13 10.1 50.1 57 1.9 35.5 10.45 0.411
00:03 1022 30.18 851 25.13 10 50 57 1.9 35.4 10.32 0.406
00:04 1022 30.18 851 25.13 9.9 49.8 57 1.8 35.2 10.27 0.404
00:05 1022 30.18 851 25.13 9.9 49.8 57 1.9 35.3 10.32 0.406
00:06 1022 30.18 851 25.13 9.9 49.8 57 1.8 35.2 10.28 0.405
00:07 1022 30.18 851 25.13 9.9 49.7 57 1.7 35.1 10.23 0.403
00:08 1022 30.18 851 25.13 9.9 49.8 58 1.9 35.5 10.23 0.403
00:09 1022 30.18 851 25.13 9.8 49.6 59 2.3 36.1 10.09 0.397
00:10 1022 30.18 851 25.13 9.5 49.2 60 2.1 35.8 9.79 0.385
00:11 1022 30.18 851 25.13 9.4 48.9 59 1.8 35.2 9.74 0.383
00:12 1022 30.18 851 25.13 9.4 48.9 59 1.7 35.1 9.79 0.385
00:13 1022 30.18 851 25.13 9.5 49 58 1.6 34.8 9.89 0.389
00:14 1022 30.18 851 25.13 9.6 49.2 57 1.6 34.8 10.01 0.394
00:15 1022 30.18 851 25.13 9.7 49.4 57 1.7 35.1 10.08 0.397
00:16 1022 30.18 851 25.13 9.7 49.4 58 1.8 35.3 10.04 0.395
00:17 1022 30.18 852 25.16 9.6 49.2 58 1.8 35.3 9.93 0.391
00:18 1022 30.18 852 25.16 9.4 49 59 1.8 35.3 9.81 0.386
00:19 1022 30.18 852 25.16 9.4 48.9 59 1.9 35.4 9.74 0.383
00:20 1022 30.18 852 25.16 9.4 48.9 59 1.9 35.4 9.78 0.385
00:21 1022 30.18 852 25.16 9.4 48.9 60 2 35.6 9.8 0.386
00:22 1022 30.18 852 25.16 9.4 48.8 58 1.5 34.6 9.71 0.382
00:23 1022 30.18 852 25.16 9.3 48.7 58 1.5 34.7 9.66 0.38
00:24 1022 30.18 852 25.16 9.1 48.4 59 1.6 34.8 9.45 0.372
00:25 1022 30.18 852 25.16 8.9 48 59 1.2 34.2 9.21 0.363
00:26 1022 30.18 852 25.16 8.9 48 57 0.9 33.6 9.28 0.365
00:27 1022 30.18 852 25.16 9.1 48.3 58 1.2 34.2 9.46 0.372
00:28 1023 30.21 852 25.16 9 48.3 59 1.4 34.5 9.42 0.371
00:29 1023 30.21 852 25.16 8.9 47.9 59 1.4 34.6 9.24 0.364
00:30 1023 30.21 852 25.16 8.7 47.7 59 1.2 34.2 9.1 0.358
00:31 1023 30.21 852 25.16 8.7 47.6 59 1.2 34.2 9.05 0.356
00:32 1023 30.21 852 25.16 8.6 47.5 59 1.2 34.1 9.03 0.356
00:33 1023 30.21 852 25.16 8.6 47.5 60 1.3 34.3 8.97 0.353
00:34 1023 30.21 852 25.16 8.5 47.3 60 1.2 34.2 8.91 0.351
00:35 1023 30.21 852 25.16 8.5 47.2 60 1.2 34.2 8.85 0.348
00:36 1023 30.21 852 25.16 8.4 47.2 60 1.1 34 8.83 0.348
00:37 1023 30.21 852 25.16 8.4 47.1 59 1 33.8 8.82 0.347
00:38 1023 30.21 852 25.16 8.5 47.3 59 0.9 33.7 8.95 0.352
00:39 1023 30.21 852 25.16 8.6 47.5 59 1 33.7 9.04 0.356
00:40 1023 30.21 852 25.16 8.7 47.6 59 1 33.9 9.12 0.359
00:41 1023 30.21 852 25.16 8.7 47.6 58 1 33.7 9.12 0.359
00:42 1023 30.21 852 25.16 8.7 47.7 59 1.1 34 9.13 0.359
00:43 1023 30.21 852 25.16 8.7 47.6 59 1.1 33.9 9.1 0.358
00:44 1023 30.21 852 25.16 8.6 47.5 58 0.9 33.6 9.06 0.357
00:45 1023 30.21 852 25.16 8.6 47.5 58 0.8 33.5 9.06 0.357
00:46 1023 30.21 852 25.16 8.7 47.6 58 0.9 33.6 9.14 0.36
00:47 1023 30.21 852 25.16 8.7 47.7 58 0.9 33.6 9.15 0.36
00:48 1023 30.21 852 25.16 8.7 47.7 58 1 33.8 9.16 0.361
00:49 1023 30.21 852 25.16 8.7 47.7 57 0.8 33.4 9.16 0.361
00:50 1023 30.21 852 25.16 8.7 47.7 57 0.7 33.2 9.2 0.362
00:51 1023 30.21 852 25.16 8.8 47.8 57 0.8 33.4 9.19 0.362
00:52 1023 30.21 852 25.16 8.7 47.7 58 0.9 33.6 9.15 0.36
00:53 1023 30.21 852 25.16 8.7 47.6 58 1 33.7 9.11 0.359
00:54 1023 30.21 852 25.16 8.5 47.4 59 1 33.8 9.02 0.355
00:55 1023 30.21 852 25.16 8.3 47 60 1 33.7 8.82 0.347
00:56 1023 30.21 852 25.16 8.1 46.6 61 1 33.8 8.57 0.337
00:57 1023 30.21 852 25.16 8 46.3 60 0.6 33.1 8.39 0.33
00:58 1023 30.21 852 25.16 8.1 46.5 59 0.6 33.2 8.41 0.331
00:59 1023 30.21 852 25.16 8.1 46.5 60 0.8 33.4 8.44 0.332
01:00 1023 30.21 852 25.16 7.9 46.2 60 0.7 33.3 8.3 0.327
01:01 1023 30.21 852 25.16 7.7 45.9 61 0.8 33.4 8.14 0.32
01:02 1023 30.21 852 25.16 7.5 45.5 63 0.9 33.7 7.93 0.312
01:03 1023 30.21 852 25.16 7.2 44.9 65 1 33.8 7.6 0.299
01:04 1023 30.21 852 25.16 6.9 44.3 65 0.8 33.5 7.34 0.289
01:05 1023 30.21 852 25.16 6.7 44.1 66 0.8 33.5 7.14 0.281
01:06 1023 30.21 852 25.16 6.6 43.9 67 0.9 33.6 7.01 0.276
01:07 1023 30.21 852 25.16 6.5 43.7 67 0.8 33.5 6.884 0.271
01:08 1023 30.21 852 25.16 6.4 43.5 68 0.9 33.6 6.759 0.266
01:09 1023 30.21 852 25.16 6.3 43.3 68 0.9 33.6 6.658 0.262
01:10 1023 30.21 852 25.16 6.1 43 69 0.9 33.5 6.533 0.257
01:11 1023 30.21 852 25.16 6.1 42.9 68 0.7 33.2 6.443 0.254
01:12 1023 30.21 852 25.16 6.3 43.3 67 0.6 33 6.618 0.261
01:13 1023 30.21 852 25.16 6.5 43.8 66 0.7 33.2 6.839 0.269
01:14 1023 30.21 852 25.16 6.5 43.7 66 0.7 33.2 6.912 0.272
01:15 1023 30.21 852 25.16 6.5 43.7 68 1 33.8 6.827 0.269
01:16 1023 30.21 852 25.16 6.2 43.1 70 1.1 33.9 6.544 0.258
01:17 1023 30.21 852 25.16 5.8 42.5 72 1.1 34 6.239 0.246
01:18 1023 30.21 852 25.16 5.6 42.1 73 1.1 34 6.024 0.237
01:19 1023 30.21 852 25.16 5.6 42.2 72 1 33.7 6.047 0.238
01:20 1023 30.21 852 25.16 5.7 42.3 72 1 33.9 6.103 0.24
01:21 1023 30.21 852 25.16 5.7 42.3 72 1.1 33.9 6.143 0.242
01:22 1023 30.21 852 25.16 5.7 42.3 72 1.1 34 6.133 0.241
01:23 1023 30.21 852 25.16 5.7 42.3 73 1.2 34.2 6.145 0.242
01:24 1023 30.21 852 25.16 5.6 42.1 73 1.1 34 6.066 0.239
01:25 1023 30.21 852 25.16 5.7 42.3 72 1.1 34 6.117 0.241
01:26 1023 30.21 852 25.16 5.7 42.3 72 1 33.9 6.14 0.242
01:27 1023 30.21 852 25.16 5.8 42.4 72 1.2 34.1 6.146 0.242
01:28 1023 30.21 852 25.16 5.7 42.3 73 1.3 34.3 6.102 0.24
01:29 1023 30.21 852 25.16 5.6 42.1 74 1.3 34.3 6.017 0.237
01:30 1023 30.21 852 25.16 5.5 41.9 74 1.3 34.3 5.881 0.232
01:31 1023 30.21 852 25.16 5.3 41.6 75 1.2 34.2 5.763 0.227
01:32 1023 30.21 852 25.16 5.2 41.3 76 1.3 34.3 5.588 0.22
01:33 1023 30.21 852 25.16 5 41 77 1.3 34.3 5.441 0.214
01:34 1023 30.21 852 25.16 4.9 40.8 77 1.3 34.3 5.317 0.209
01:35 1023 30.21 852 25.16 4.8 40.7 77 1.2 34.2 5.277 0.208
01:36 1023 30.21 852 25.16 4.9 40.7 77 1.2 34.2 5.244 0.206
01:37 1023 30.21 852 25.16 4.8 40.7 77 1.1 34 5.217 0.205
01:38 1023 30.21 852 25.16 4.7 40.5 78 1.2 34.1 5.126 0.202
01:39 1023 30.21 852 25.16 4.6 40.3 78 1.2 34.1 5.048 0.199
01:40 1023 30.21 852 25.16 4.5 40 79 1.1 34 4.913 0.193
01:41 1023 30.21 852 25.16 4.4 39.9 79 1.1 34 4.834 0.19
01:42 1023 30.21 852 25.16 4.3 39.7 80 1.1 34 4.642 0.183
01:43 1023 30.21 852 25.16 4.2 39.5 81 1.1 34 4.535 0.179
01:44 1023 30.21 852 25.16 4.1 39.4 81 1.1 33.9 4.49 0.177
01:45 1023 30.21 852 25.16 4.1 39.3 81 1.1 34 4.445 0.175
01:46 1023 30.21 852 25.16 4.1 39.4 80 1 33.8 4.508 0.177
01:47 1023 30.21 852 25.16 4.1 39.3 81 1.1 33.9 4.486 0.177
01:48 1023 30.21 852 25.16 4 39.2 81 1.1 33.9 4.39 0.173
01:49 1023 30.21 852 25.16 3.9 39.1 81 1 33.9 4.345 0.171
01:50 1023 30.21 852 25.16 3.9 39 82 1.1 34 4.311 0.17
01:51 1023 30.21 852 25.16 3.9 38.9 82 1.1 34 4.272 0.168
01:52 1023 30.21 852 25.16 3.8 38.8 83 1.1 34 4.193 0.165
01:53 1023 30.21 852 25.16 3.8 38.8 82 1.1 33.9 4.159 0.164
01:54 1023 30.21 852 25.16 3.8 38.8 82 1.1 33.9 4.182 0.165
01:55 1023 30.21 852 25.16 3.8 38.8 82 1.1 33.9 4.182 0.165
01:56 1023 30.21 852 25.16 3.8 38.8 82 0.9 33.7 4.199 0.165
01:57 1023 30.21 852 25.16 3.8 38.9 82 0.9 33.7 4.182 0.165
01:58 1023 30.21 852 25.16 3.8 38.9 82 1 33.7 4.228 0.166
01:59 1023 30.21 852 25.16 3.9 39 81 0.9 33.7 4.245 0.167
02:00 1023 30.21 852 25.16 3.8 38.9 82 1 33.8 4.245 0.167
02:01 1023 30.21 852 25.16 3.9 39 82 1 33.8 4.273 0.168
02:02 1023 30.21 852 25.16 4 39.3 81 1 33.8 4.403 0.173
02:03 1023 30.21 852 25.16 4.1 39.4 80 1 33.9 4.489 0.177
02:04 1023 30.21 852 25.16 4.3 39.7 79 1 33.8 4.647 0.183
02:05 1023 30.21 852 25.16 4.4 40 78 1 33.8 4.766 0.188
02:06 1023 30.21 852 25.16 4.4 40 79 1 33.8 4.794 0.189
02:07 1023 30.21 852 25.16 4.5 40 78 1 33.9 4.851 0.191
02:08 1023 30.21 852 25.16 4.6 40.2 78 1.1 33.9 4.913 0.193
02:09 1023 30.21 852 25.16 4.6 40.3 78 1 33.8 4.976 0.196
02:10 1023 30.21 852 25.16 4.6 40.3 77 1 33.8 4.964 0.195
02:11 1023 30.21 852 25.16 4.6 40.3 77 0.9 33.6 5.004 0.197
02:12 1023 30.21 852 25.16 4.8 40.6 76 0.8 33.5 5.134 0.202
02:13 1023 30.21 852 25.16 5 40.9 75 0.9 33.5 5.287 0.208
02:14 1023 30.21 852 25.16 5 41 75 0.9 33.6 5.338 0.21
02:15 1023 30.21 852 25.16 4.8 40.7 75 0.9 33.5 5.247 0.207
02:16 1023 30.21 852 25.16 4.8 40.6 76 0.9 33.6 5.14 0.202
02:17 1023 30.21 852 25.16 4.7 40.4 77 0.9 33.7 5.027 0.198
02:18 1023 30.21 852 25.16 4.6 40.2 77 0.9 33.7 4.885 0.192
02:19 1023 30.21 852 25.16 4.5 40.2 77 0.9 33.5 4.902 0.193
02:20 1023 30.21 852 25.16 4.5 40.2 77 0.9 33.5 4.846 0.191
02:21 1023 30.21 852 25.16 4.5 40 77 0.8 33.5 4.846 0.191
02:22 1023 30.21 852 25.16 4.4 40 77 0.8 33.5 4.761 0.187
02:23 1023 30.21 852 25.16 4.4 39.8 77 0.7 33.3 4.699 0.185
02:24 1023 30.21 852 25.16 4.1 39.4 79 0.7 33.3 4.461 0.176
02:25 1023 30.21 852 25.16 3.9 38.9 80 0.7 33.3 4.212 0.166
02:26 1023 30.21 852 25.16 3.7 38.7 80 0.7 33.2 4.116 0.162
02:27 1023 30.21 852 25.16 3.7 38.6 81 0.7 33.3 4.031 0.159
02:28 1023 30.21 852 25.16 3.6 38.5 82 0.8 33.4 3.997 0.157
02:29 1023 30.21 852 25.16 3.7 38.6 81 0.8 33.4 4.077 0.161
02:30 1023 30.21 852 25.16 3.7 38.6 81 0.8 33.4 4.033 0.159
02:31 1023 30.21 853 25.19 3.6 38.5 82 0.8 33.5 4.016 0.158
02:32 1023 30.21 853 25.19 3.6 38.5 82 0.9 33.6 3.983 0.157
02:33 1023 30.21 853 25.19 3.5 38.3 83 0.9 33.6 3.927 0.155
02:34 1023 30.21 853 25.19 3.5 38.3 83 0.9 33.5 3.921 0.154
02:35 1023 30.21 853 25.19 3.5 38.3 83 0.9 33.6 3.854 0.152
02:36 1023 30.21 853 25.19 3.4 38.1 83 0.8 33.5 3.82 0.15
02:37 1023 30.21 853 25.19 3.5 38.2 83 0.9 33.7 3.86 0.152
02:38 1023 30.21 853 25.19 3.6 38.5 83 0.9 33.7 3.928 0.155
02:39 1023 30.21 853 25.19 3.6 38.5 83 1 33.9 3.985 0.157
02:40 1023 30.21 853 25.19 3.6 38.4 83 1 33.8 3.991 0.157
02:41 1023 30.21 853 25.19 3.6 38.4 83 1 33.8 3.968 0.156
02:42 1023 30.21 853 25.19 3.6 38.4 84 1 33.9 3.94 0.155
02:43 1023 30.21 853 25.19 3.5 38.3 84 1 33.8 3.912 0.154
02:44 1024 30.24 853 25.19 3.4 38.2 84 1 33.8 3.844 0.151
02:45 1023 30.21 853 25.19 3.4 38.2 84 1 33.8 3.878 0.153
02:46 1023 30.21 853 25.19 3.5 38.3 84 1.1 33.9 3.901 0.154
02:47 1023 30.21 853 25.19 3.5 38.4 84 1.1 33.9 3.93 0.155
02:48 1023 30.21 853 25.19 3.6 38.4 84 1.1 33.9 3.907 0.154
02:49 1023 30.21 853 25.19 3.5 38.3 84 1.1 33.9 3.879 0.153
02:50 1023 30.21 853 25.19 3.4 38.2 84 1 33.9 3.83 0.151
02:51 1023 30.21 853 25.19 3.4 38.1 85 1.1 33.9 3.773 0.149
02:52 1023 30.21 853 25.19 3.4 38.2 85 1.1 33.9 3.796 0.149
02:53 1024 30.24 853 25.19 3.4 38 85 1 33.8 3.752 0.148
02:54 1024 30.24 853 25.19 3.4 38.1 84 1 33.8 3.752 0.148
02:55 1024 30.24 853 25.19 3.3 38 84 0.9 33.6 3.656 0.144
02:56 1024 30.24 853 25.19 3.2 37.8 85 0.9 33.6 3.599 0.142
02:57 1024 30.24 853 25.19 3.2 37.8 85 1 33.7 3.61 0.142
02:58 1024 30.24 853 25.19 3.4 38.1 84 1 33.8 3.701 0.146
02:59 1024 30.24 853 25.19 3.4 38.1 84 0.9 33.7 3.73 0.147
03:00 1024 30.24 853 25.19 3.4 38 84 0.9 33.7 3.691 0.145
03:01 1024 30.24 853 25.19 3.3 37.9 85 0.9 33.7 3.634 0.143
03:02 1024 30.24 853 25.19 3.2 37.8 85 0.9 33.6 3.578 0.141
03:03 1024 30.24 853 25.19 3.1 37.6 85 0.9 33.6 3.477 0.137
03:04 1024 30.24 853 25.19 3 37.4 86 0.8 33.5 3.432 0.135
03:05 1024 30.24 853 25.19 3 37.4 86 0.9 33.6 3.381 0.133
03:06 1024 30.24 853 25.19 2.9 37.1 87 0.8 33.5 3.268 0.129
03:07 1024 30.24 853 25.19 2.8 37 87 0.9 33.6 3.234 0.127
03:08 1024 30.24 853 25.19 2.7 36.9 87 0.8 33.5 3.133 0.123
03:09 1024 30.24 853 25.19 2.6 36.7 88 0.8 33.4 3.054 0.12
03:10 1024 30.24 853 25.19 2.6 36.6 88 0.8 33.5 3.02 0.119
03:11 1024 30.24 853 25.19 2.6 36.7 89 0.9 33.7 2.992 0.118
03:12 1024 30.24 853 25.19 2.7 36.8 89 1 33.7 3.026 0.119
03:13 1024 30.24 853 25.19 2.7 36.9 89 1 33.8 3.049 0.12
03:14 1024 30.24 853 25.19 2.7 36.9 88 0.9 33.6 3.06 0.12
03:15 1024 30.24 853 25.19 2.7 36.8 88 0.9 33.6 3.032 0.119
03:16 1024 30.24 853 25.19 2.6 36.7 88 0.8 33.5 2.987 0.118
03:17 1024 30.24 853 25.19 2.5 36.6 88 0.8 33.5 2.919 0.115
03:18 1024 30.24 853 25.19 2.5 36.6 88 0.8 33.4 2.919 0.115
03:19 1024 30.24 853 25.19 2.5 36.5 88 0.7 33.3 2.851 0.112
03:20 1024 30.24 853 25.19 2.5 36.5 88 0.7 33.3 2.891 0.114
03:21 1024 30.24 853 25.19 2.5 36.5 88 0.7 33.2 2.885 0.114
03:22 1024 30.24 853 25.19 2.5 36.6 89 0.8 33.5 2.925 0.115
03:23 1024 30.24 853 25.19 2.7 36.9 88 0.9 33.7 3.163 0.125
03:24 1024 30.24 853 25.19 3.1 37.5 86 0.9 33.6 3.4 0.134
03:25 1024 30.24 853 25.19 3.4 38.1 84 0.9 33.6 3.604 0.142
03:26 1024 30.24 853 25.19 3.7 38.6 82 0.9 33.6 3.899 0.154
03:27 1024 30.24 853 25.19 3.8 38.9 81 0.8 33.5 4.046 0.159
03:28 1024 30.24 853 25.19 3.9 38.9 80 0.8 33.4 4.091 0.161
03:29 1024 30.24 853 25.19 3.7 38.7 81 0.8 33.4 3.944 0.155
03:30 1024 30.24 853 25.19 3.5 38.3 82 0.7 33.3 3.74 0.147
03:31 1024 30.24 853 25.19 3.4 38 83 0.7 33.3 3.638 0.143
03:32 1024 30.24 853 25.19 3.3 37.9 84 0.8 33.4 3.582 0.141
03:33 1024 30.24 853 25.19 3.3 37.9 84 0.8 33.4 3.599 0.142
03:34 1024 30.24 853 25.19 3.3 37.9 84 0.8 33.4 3.582 0.141
03:35 1024 30.24 853 25.19 3.2 37.8 84 0.8 33.5 3.571 0.141
03:36 1024 30.24 853 25.19 3.2 37.8 85 0.8 33.5 3.548 0.14
03:37 1024 30.24 853 25.19 3.2 37.7 85 0.9 33.6 3.486 0.137
03:38 1024 30.24 853 25.19 3.2 37.7 85 0.9 33.7 3.525 0.139
03:39 1024 30.24 853 25.19 3.3 37.9 85 0.9 33.7 3.576 0.141
03:40 1024 30.24 853 25.19 3.2 37.8 85 0.9 33.6 3.61 0.142
03:41 1024 30.24 853 25.19 3.3 37.9 84 0.9 33.6 3.627 0.143
03:42 1024 30.24 853 25.19 3.3 38 84 0.9 33.7 3.65 0.144
03:43 1024 30.24 853 25.19 3.4 38.1 84 0.9 33.7 3.695 0.145
03:44 1024 30.24 853 25.19 3.5 38.3 83 0.9 33.7 3.797 0.149
03:45 1024 30.24 853 25.19 3.6 38.5 83 0.9 33.7 3.893 0.153
03:46 1024 30.24 853 25.19 3.8 38.8 82 0.9 33.7 4.035 0.159
03:47 1024 30.24 853 25.19 3.9 39.1 81 1 33.7 4.159 0.164
03:48 1024 30.24 853 25.19 3.9 39.1 81 0.9 33.7 4.176 0.164
03:49 1024 30.24 853 25.19 4 39.2 81 1 33.7 4.273 0.168
03:50 1024 30.24 853 25.19 4.1 39.3 80 0.9 33.7 4.312 0.17
03:51 1024 30.24 853 25.19 4.1 39.4 79 0.8 33.5 4.38 0.172
03:52 1024 30.24 853 25.19 4.2 39.6 78 0.8 33.4 4.493 0.177
03:53 1024 30.24 853 25.19 4.3 39.8 78 0.8 33.4 4.544 0.179
03:54 1024 30.24 853 25.19 4.4 39.9 77 0.7 33.3 4.624 0.182
03:55 1024 30.24 853 25.19 4.5 40.1 76 0.7 33.3 4.759 0.187
03:56 1024 30.24 853 25.19 4.7 40.5 76 0.8 33.4 4.924 0.194
03:57 1024 30.24 853 25.19 4.8 40.6 75 0.7 33.3 5.008 0.197
03:58 1024 30.24 853 25.19 4.9 40.8 75 0.7 33.3 5.093 0.201
03:59 1024 30.24 853 25.19 5 40.9 74 0.7 33.3 5.212 0.205
04:00 1024 30.24 853 25.19 5.1 41.2 74 0.8 33.4 5.331 0.21
04:01 1024 30.24 853 25.19 5.2 41.3 73 0.8 33.4 5.41 0.213
04:02 1024 30.24 853 25.19 5.2 41.4 73 0.7 33.3 5.529 0.218
04:03 1024 30.24 853 25.19 5.4 41.7 72 0.8 33.5 5.603 0.221
04:04 1024 30.24 853 25.19 5.5 41.8 72 0.8 33.4 5.665 0.223
04:05 1024 30.24 853 25.19 5.5 41.9 71 0.7 33.3 5.767 0.227
04:06 1024 30.24 853 25.19 5.6 42.1 71 0.8 33.5 5.863 0.231
04:07 1024 30.24 853 25.19 5.6 42.1 71 0.8 33.5 5.869 0.231
04:08 1024 30.24 853 25.19 5.5 42 72 0.8 33.5 5.829 0.229
04:09 1024 30.24 853 25.19 5.7 42.2 70 0.7 33.2 5.937 0.234
04:10 1024 30.24 853 25.19 5.9 42.6 69 0.7 33.3 6.089 0.24
04:11 1024 30.24 853 25.19 5.9 42.6 70 0.8 33.5 6.095 0.24
04:12 1024 30.24 853 25.19 5.6 42.1 71 0.8 33.5 5.812 0.229
04:13 1024 30.24 853 25.19 5.2 41.4 73 0.8 33.4 5.45 0.215
04:14 1024 30.24 853 25.19 4.7 40.4 75 0.7 33.2 4.997 0.197
04:15 1024 30.24 853 25.19 4.5 40.1 76 0.6 33.1 4.799 0.189
04:16 1024 30.24 853 25.19 4.6 40.3 75 0.6 33.1 4.935 0.194
04:17 1024 30.24 853 25.19 4.7 40.5 75 0.6 33.2 5.003 0.197
04:18 1024 30.24 853 25.19 4.7 40.5 75 0.6 33.1 5.031 0.198
04:19 1024 30.24 853 25.19 4.8 40.6 75 0.6 33.2 5.144 0.203
04:20 1024 30.24 853 25.19 4.7 40.5 75 0.7 33.3 5.082 0.2
04:21 1024 30.24 853 25.19 4.6 40.2 77 0.8 33.5 4.918 0.194
04:22 1024 30.24 853 25.19 4.4 39.9 77 0.8 33.4 4.742 0.187
04:23 1024 30.24 853 25.19 4.3 39.7 78 0.7 33.3 4.652 0.183
04:24 1024 30.24 853 25.19 4.2 39.5 77 0.6 33.1 4.607 0.181
04:25 1024 30.24 853 25.19 4.4 39.8 77 0.7 33.3 4.759 0.187
04:26 1024 30.24 853 25.19 4.4 39.9 77 0.7 33.2 4.776 0.188
04:27 1024 30.24 853 25.19 4.6 40.3 76 0.7 33.2 4.952 0.195
04:28 1024 30.24 853 25.19 4.8 40.6 75 0.8 33.4 5.088 0.2
04:29 1024 30.24 853 25.19 4.7 40.5 76 0.8 33.4 5.059 0.199
04:30 1024 30.24 853 25.19 4.6 40.3 77 0.9 33.5 4.98 0.196
04:31 1024 30.24 853 25.19 4.4 39.9 78 0.9 33.5 4.805 0.189
04:32 1024 30.24 853 25.19 4.2 39.6 78 0.8 33.5 4.607 0.181
04:33 1024 30.24 853 25.19 4.1 39.4 79 0.7 33.3 4.505 0.177
04:34 1024 30.24 853 25.19 4.1 39.3 79 0.7 33.3 4.454 0.175
04:35 1024 30.24 853 25.19 4.1 39.3 79 0.7 33.3 4.431 0.174
04:36 1024 30.24 853 25.19 4 39.2 79 0.7 33.3 4.38 0.172
04:37 1024 30.24 853 25.19 3.9 39.1 79 0.7 33.2 4.307 0.17
04:38 1024 30.24 853 25.19 3.9 39.1 79 0.6 33.1 4.324 0.17
04:39 1024 30.24 853 25.19 4 39.3 78 0.6 33 4.329 0.17
04:40 1024 30.24 853 25.19 4.1 39.4 78 0.6 33.1 4.431 0.174
04:41 1024 30.24 853 25.19 4.2 39.5 77 0.6 33.1 4.46 0.176
04:42 1024 30.24 853 25.19 4.3 39.7 77 0.6 33.1 4.601 0.181
04:43 1024 30.24 853 25.19 4.4 40 76 0.7 33.2 4.68 0.184
04:44 1024 30.24 853 25.19 4.5 40.1 76 0.7 33.2 4.782 0.188
04:45 1024 30.24 853 25.19 4.6 40.2 76 0.7 33.3 4.85 0.191
04:46 1024 30.24 853 25.19 4.5 40.2 76 0.7 33.3 4.833 0.19
04:47 1024 30.24 853 25.19 4.5 40 77 0.7 33.3 4.776 0.188
04:48 1024 30.24 853 25.19 4.3 39.8 77 0.7 33.3 4.692 0.185
04:49 1024 30.24 853 25.19 4.2 39.6 78 0.7 33.3 4.573 0.18
04:50 1024 30.24 853 25.19 4.1 39.4 78 0.7 33.2 4.482 0.176
04:51 1024 30.24 853 25.19 4.1 39.3 78 0.6 33.1 4.431 0.174
04:52 1024 30.24 853 25.19 4.1 39.4 78 0.7 33.2 4.465 0.176
04:53 1024 30.24 853 25.19 4.1 39.5 78 0.7 33.3 4.488 0.177
04:54 1024 30.24 853 25.19 4.1 39.3 78 0.7 33.2 4.465 0.176
04:55 1024 30.24 853 25.19 4 39.3 79 0.7 33.3 4.409 0.174
04:56 1024 30.24 853 25.19 4 39.2 79 0.7 33.3 4.38 0.172
04:57 1024 30.24 853 25.19 3.9 39.1 79 0.7 33.2 4.341 0.171
04:58 1024 30.24 853 25.19 3.9 39 79 0.6 33 4.25 0.167
04:59 1024 30.24 853 25.19 3.8 38.8 80 0.6 33 4.109 0.162
05:00 1024 30.24 853 25.19 3.7 38.6 80 0.6 33 4.035 0.159
05:01 1024 30.24 853 25.19 3.6 38.6 80 0.6 33 4.024 0.158
05:02 1024 30.24 853 25.19 3.7 38.6 80 0.5 32.9 4.086 0.161
05:03 1024 30.24 853 25.19 3.7 38.7 79 0.5 32.9 4.126 0.162
05:04 1024 30.24 853 25.19 3.7 38.7 79 0.5 32.8 4.148 0.163
05:05 1024 30.24 853 25.19 3.9 38.9 79 0.6 33.1 4.216 0.166
05:06 1024 30.24 853 25.19 4.1 39.4 78 0.7 33.2 4.465 0.176
05:07 1024 30.24 853 25.19 4.3 39.8 77 0.7 33.2 4.669 0.184
05:08 1024 30.24 853 25.19 4.4 40 76 0.7 33.2 4.816 0.19
05:09 1024 30.24 853 25.19 4.5 40.1 76 0.7 33.3 4.844 0.191
05:10 1024 30.24 853 25.19 4.5 40.1 76 0.7 33.2 4.861 0.191
05:11 1024 30.24 853 25.19 4.6 40.3 76 0.7 33.2 4.941 0.195
05:12 1024 30.24 853 25.19 4.7 40.4 75 0.6 33.1 5.014 0.197
05:13 1024 30.24 853 25.19 4.8 40.6 74 0.5 32.9 5.133 0.202
05:14 1024 30.24 853 25.19 4.8 40.6 74 0.5 32.8 5.144 0.203
05:15 1024 30.24 853 25.19 4.7 40.5 74 0.5 32.8 5.059 0.199
05:16 1024 30.24 853 25.19 4.5 40.1 75 0.5 32.9 4.833 0.19
05:17 1024 30.24 853 25.19 4.2 39.5 76 0.4 32.7 4.561 0.18
05:18 1024 30.24 853 25.19 3.9 39 78 0.4 32.6 4.329 0.17
05:19 1024 30.24 853 25.19 3.6 38.5 79 0.2 32.4 4.018 0.158
05:20 1024 30.24 853 25.19 3.2 37.8 80 0.2 32.4 3.684 0.145
05:21 1024 30.24 853 25.19 3 37.4 82 0.2 32.4 3.396 0.134
05:22 1024 30.24 853 25.19 2.8 37 83 0.2 32.3 3.231 0.127
05:23 1024 30.24 853 25.19 2.6 36.8 83 0.1 32.2 3.079 0.121
05:24 1024 30.24 853 25.19 2.6 36.6 84 0.1 32.2 2.965 0.117
05:25 1024 30.24 853 25.19 2.4 36.3 83 -0.1 31.8 2.824 0.111
05:26 1024 30.24 853 25.19 2.2 36 84 -0.2 31.6 2.637 0.104
05:27 1024 30.24 853 25.19 2 35.6 84 -0.4 31.3 2.467 0.097
05:28 1024 30.24 853 25.19 1.8 35.3 85 -0.4 31.3 2.298 0.09
05:29 1024 30.24 853 25.19 1.7 35.1 86 -0.4 31.3 2.139 0.084
05:30 1024 30.24 853 25.19 1.6 34.9 87 -0.3 31.4 2.043 0.08
05:31 1024 30.24 853 25.19 1.6 34.9 89 -0.1 31.8 2.094 0.082
05:32 1024 30.24 853 25.19 1.7 35.1 88 -0.1 31.8 2.122 0.084
05:33 1024 30.24 853 25.19 1.7 35.1 87 -0.2 31.7 2.145 0.084
05:34 1024 30.24 853 25.19 1.8 35.2 87 -0.2 31.7 2.156 0.085
05:35 1024 30.24 853 25.19 1.8 35.2 87 -0.2 31.7 2.111 0.083
05:36 1024 30.24 853 25.19 1.7 35.1 87 -0.2 31.6 2.1 0.083
05:37 1024 30.24 853 25.19 1.8 35.3 88 0 32 2.203 0.087
05:38 1024 30.24 853 25.19 2.2 35.9 86 -0 32 2.497 0.098
05:39 1024 30.24 853 25.19 2.3 36.2 85 -0 32 2.605 0.103
05:40 1024 30.24 853 25.19 2.4 36.3 84 0 32 2.725 0.107
05:41 1024 30.24 853 25.19 2.4 36.3 84 -0 31.9 2.713 0.107
05:42 1024 30.24 853 25.19 2.4 36.2 84 -0 31.9 2.674 0.105
05:43 1024 30.24 853 25.19 2.3 36.1 85 -0.1 31.9 2.612 0.103
05:44 1024 30.24 853 25.19 2.2 36 84 -0.2 31.6 2.562 0.101
05:45 1024 30.24 853 25.19 2 35.6 85 -0.2 31.6 2.437 0.096
05:46 1024 30.24 853 25.19 1.9 35.5 86 -0.2 31.6 2.342 0.092
05:47 1024 30.24 853 25.19 1.8 35.2 86 -0.3 31.5 2.183 0.086
05:48 1024 30.24 853 25.19 1.6 34.9 87 -0.3 31.5 2.047 0.081
05:49 1024 30.24 853 25.19 1.5 34.7 87 -0.4 31.3 1.969 0.078
05:50 1024 30.24 853 25.19 1.5 34.7 87 -0.4 31.3 1.878 0.074
05:51 1024 30.24 853 25.19 1.5 34.6 88 -0.3 31.5 1.901 0.075
05:52 1024 30.24 853 25.19 1.5 34.8 88 -0.3 31.5 1.929 0.076
05:53 1024 30.24 853 25.19 1.6 34.9 87 -0.3 31.5 1.958 0.077
05:54 1024 30.24 853 25.19 1.7 35 87 -0.3 31.5 1.992 0.078
05:55 1024 30.24 853 25.19 1.8 35.2 88 -0.1 31.9 2.088 0.082
05:56 1024 30.24 853 25.19 1.9 35.4 87 -0 31.9 2.213 0.087
05:57 1024 30.24 853 25.19 2 35.7 85 -0.2 31.6 2.332 0.092
05:58 1024 30.24 853 25.19 2.1 35.8 86 0.1 32.1 2.383 0.094
05:59 1024 30.24 853 25.19 2.1 35.9 86 -0 32 2.423 0.095
06:00 1024 30.24 853 25.19 2.1 35.9 85 -0.1 31.9 2.451 0.096
06:01 1024 30.24 853 25.19 2.1 35.8 85 -0.2 31.6 2.428 0.096
06:02 1024 30.24 853 25.19 1.9 35.5 85 -0.3 31.5 2.276 0.09
06:03 1024 30.24 853 25.19 1.8 35.2 87 -0.2 31.7 2.168 0.085
06:04 1024 30.24 853 25.19 1.7 35.1 87 -0.2 31.6 2.123 0.084
06:05 1024 30.24 853 25.19 1.7 35.1 87 -0.2 31.7 2.1 0.083
06:06 1024 30.24 853 25.19 1.7 35.1 88 -0.1 31.7 2.061 0.081
06:07 1024 30.24 853 25.19 1.7 35 88 -0.1 31.8 2.028 0.08
06:08 1024 30.24 853 25.19 1.8 35.2 88 -0.1 31.9 2.158 0.085
06:09 1024 30.24 853 25.19 1.9 35.5 87 -0 32 2.255 0.089
06:10 1024 30.24 854 25.22 2.2 35.9 85 -0 31.9 2.447 0.096
06:11 1024 30.24 854 25.22 2.3 36.1 85 0 32.1 2.606 0.103
06:12 1024 30.24 854 25.22 2.4 36.4 84 0 32.1 2.731 0.108
06:13 1024 30.24 854 25.22 2.4 36.4 83 -0.1 31.9 2.709 0.107
06:14 1024 30.24 854 25.22 2.3 36.2 84 -0.2 31.7 2.675 0.105
06:15 1024 30.24 854 25.22 2.2 35.9 85 -0.2 31.7 2.596 0.102
06:16 1024 30.24 854 25.22 2.2 35.9 85 -0.1 31.8 2.517 0.099
06:17 1024 30.24 854 25.22 2.1 35.8 85 -0.2 31.6 2.478 0.098
06:18 1024 30.24 854 25.22 2.1 35.8 85 -0.2 31.7 2.427 0.096
06:19 1024 30.24 854 25.22 2 35.6 85 -0.2 31.6 2.354 0.093
06:20 1024 30.24 854 25.22 2 35.5 86 -0.1 31.8 2.297 0.09
06:21 1024 30.24 854 25.22 2 35.5 87 -0 32 2.315 0.091
06:22 1024 30.24 854 25.22 2 35.6 86 -0.1 31.8 2.287 0.09
06:23 1024 30.24 854 25.22 2 35.6 85 -0.2 31.6 2.332 0.092
06:24 1024 30.24 854 25.22 2 35.6 86 -0.1 31.8 2.287 0.09
06:25 1024 30.24 854 25.22 2 35.5 86 -0.2 31.7 2.316 0.091
06:26 1024 30.24 854 25.22 1.9 35.5 86 -0.1 31.8 2.276 0.09
06:27 1024 30.24 854 25.22 2 35.5 87 0 32 2.327 0.092
06:28 1024 30.24 854 25.22 2 35.7 86 -0 32 2.412 0.095
06:29 1024 30.24 854 25.22 2.1 35.8 86 -0 32 2.446 0.096
06:30 1024 30.24 854 25.22 2.1 35.8 86 -0 32 2.39 0.094
06:31 1024 30.24 854 25.22 2.1 35.8 86 0 32 2.379 0.094
06:32 1024 30.24 854 25.22 2 35.6 86 -0 31.9 2.356 0.093
06:33 1024 30.24 854 25.22 2 35.6 85 -0.2 31.6 2.322 0.091
06:34 1024 30.24 854 25.22 1.9 35.4 86 -0.2 31.6 2.232 0.088
06:35 1024 30.24 854 25.22 1.7 35.1 86 -0.4 31.3 2.107 0.083
06:36 1024 30.24 854 25.22 1.5 34.6 88 -0.4 31.3 1.892 0.074
06:37 1025 30.27 854 25.22 1.4 34.6 89 -0.2 31.6 1.853 0.073
06:38 1024 30.24 854 25.22 1.5 34.7 89 -0.2 31.7 1.881 0.074
06:39 1024 30.24 854 25.22 1.5 34.7 87 -0.3 31.4 1.875 0.074
06:40 1024 30.24 854 25.22 1.4 34.6 87 -0.4 31.2 1.791 0.071
06:41 1024 30.24 854 25.22 1.3 34.3 88 -0.5 31.1 1.694 0.067
06:42 1024 30.24 854 25.22 1.3 34.3 89 -0.3 31.4 1.638 0.064
06:43 1024 30.24 854 25.22 1.3 34.4 89 -0.3 31.4 1.706 0.067
06:44 1024 30.24 854 25.22 1.3 34.4 88 -0.5 31.1 1.66 0.065
06:45 1024 30.24 854 25.22 1.2 34.1 88 -0.6 30.9 1.604 0.063
06:46 1024 30.24 854 25.22 1.1 34 90 -0.4 31.2 1.491 0.059
06:47 1024 30.24 854 25.22 1.2 34.1 90 -0.4 31.3 1.519 0.06
06:48 1024 30.24 854 25.22 1.3 34.3 89 -0.3 31.4 1.621 0.064
06:49 1024 30.24 854 25.22 1.4 34.5 89 -0.3 31.5 1.706 0.067
06:50 1024 30.24 854 25.22 1.4 34.6 89 -0.2 31.6 1.802 0.071
06:51 1024 30.24 854 25.22 1.6 34.9 88 -0.2 31.7 1.887 0.074
06:52 1024 30.24 854 25.22 1.6 34.9 88 -0.1 31.7 1.944 0.077
06:53 1024 30.24 854 25.22 1.7 35.1 87 -0.1 31.8 2.006 0.079
06:54 1024 30.24 854 25.22 1.7 35.1 87 -0.2 31.6 2.012 0.079
06:55 1024 30.24 854 25.22 1.7 35 87 -0.2 31.6 1.989 0.078
06:56 1024 30.24 854 25.22 1.7 35 88 -0.2 31.7 1.989 0.078
06:57 1025 30.27 854 25.22 1.7 35.1 88 -0 31.9 2.046 0.081
06:58 1025 30.27 854 25.22 1.8 35.3 87 -0 31.9 2.114 0.083
06:59 1025 30.27 854 25.22 2 35.6 88 0.1 32.2 2.21 0.087
07:00 1025 30.27 854 25.22 2.2 35.9 86 0 32.1 2.38 0.094
07:01 1025 30.27 854 25.22 2.4 36.3 84 0 32 2.584 0.102
07:02 1025 30.27 854 25.22 2.6 36.6 83 -0.1 31.9 2.77 0.109
07:03 1025 30.27 854 25.22 2.7 36.9 82 -0.1 31.9 2.855 0.112
07:04 1025 30.27 854 25.22 2.8 37 82 -0 32 2.952 0.116
07:05 1025 30.27 854 25.22 2.8 37.1 81 -0.1 31.8 3.048 0.12
07:06 1025 30.27 854 25.22 2.9 37.1 81 -0 32 3.02 0.119
07:07 1025 30.27 854 25.22 2.9 37.1 81 -0.1 31.7 3.076 0.121
07:08 1025 30.27 854 25.22 2.9 37.2 80 -0.2 31.7 3.076 0.121
07:09 1025 30.27 854 25.22 2.9 37.2 81 -0 31.9 3.099 0.122
07:10 1025 30.27 854 25.22 3 37.3 81 0 32.1 3.172 0.125
07:11 1025 30.27 854 25.22 3.1 37.5 81 0.1 32.2 3.28 0.129
07:12 1025 30.27 854 25.22 3.3 37.9 79 0 32.1 3.512 0.138
07:13 1025 30.27 854 25.22 3.5 38.3 78 0 32 3.716 0.146
07:14 1025 30.27 854 25.22 3.6 38.5 78 0 32.1 3.874 0.153
07:15 1025 30.27 854 25.22 3.7 38.7 77 0 32.1 3.982 0.157
07:16 1025 30.27 854 25.22 3.7 38.7 77 0.1 32.1 4.061 0.16
07:17 1025 30.27 854 25.22 3.8 38.9 77 0.1 32.2 4.175 0.164
07:18 1025 30.27 854 25.22 3.8 38.8 77 0.1 32.2 4.18 0.165
07:19 1025 30.27 854 25.22 3.8 38.8 77 0.1 32.2 4.259 0.168
07:20 1025 30.27 854 25.22 4 39.2 76 0.2 32.3 4.407 0.174
07:21 1025 30.27 854 25.22 4.2 39.5 75 0.2 32.4 4.571 0.18
07:22 1025 30.27 854 25.22 4.2 39.6 75 0.2 32.3 4.61 0.181
07:23 1025 30.27 854 25.22 4.2 39.6 76 0.3 32.5 4.599 0.181
07:24 1025 30.27 854 25.22 4.1 39.4 76 0.3 32.5 4.61 0.181
07:25 1025 30.27 854 25.22 4.3 39.8 75 0.2 32.4 4.837 0.19
07:26 1025 30.27 854 25.22 4.6 40.3 74 0.4 32.6 5.029 0.198
07:27 1025 30.27 854 25.22 4.7 40.4 74 0.4 32.7 5.148 0.203
07:28 1025 30.27 854 25.22 4.7 40.4 74 0.4 32.8 5.194 0.204
07:29 1025 30.27 854 25.22 4.7 40.5 74 0.5 32.9 5.233 0.206
07:30 1025 30.27 854 25.22 4.7 40.5 75 0.6 33.1 5.284 0.208
07:31 1025 30.27 854 25.22 4.7 40.5 75 0.7 33.2 5.295 0.208
07:32 1025 30.27 854 25.22 4.8 40.6 75 0.7 33.3 5.318 0.209
07:33 1025 30.27 854 25.22 4.8 40.6 75 0.8 33.4 5.312 0.209
07:34 1025 30.27 854 25.22 4.8 40.6 76 0.8 33.5 5.324 0.21
07:35 1025 30.27 854 25.22 4.8 40.7 76 0.9 33.5 5.335 0.21
07:36 1025 30.27 854 25.22 4.9 40.7 76 1 33.8 5.335 0.21
07:37 1025 30.27 854 25.22 4.8 40.7 76 1 33.8 5.341 0.21
07:38 1025 30.27 854 25.22 4.7 40.5 76 1 33.7 5.307 0.209
07:39 1025 30.27 854 25.22 4.8 40.6 76 0.9 33.7 5.284 0.208
07:40 1025 30.27 854 25.22 4.8 40.7 76 0.9 33.7 5.324 0.21
07:41 1025 30.27 854 25.22 4.9 40.9 76 1 33.9 5.414 0.213
07:42 1025 30.27 854 25.22 5 41 76 1.1 34 5.465 0.215
07:43 1025 30.27 854 25.22 5.1 41.1 75 1 33.8 5.539 0.218
07:44 1025 30.27 854 25.22 5.2 41.3 75 1.2 34.1 5.635 0.222
07:45 1025 30.27 854 25.22 5.3 41.5 76 1.3 34.4 5.675 0.223
07:46 1025 30.27 854 25.22 5.2 41.4 76 1.4 34.6 5.709 0.225
07:47 1025 30.27 854 25.22 5.3 41.5 76 1.4 34.5 5.748 0.226
07:48 1025 30.27 854 25.22 5.4 41.7 76 1.5 34.7 5.828 0.229
07:49 1025 30.27 854 25.22 5.5 41.8 76 1.6 34.9 5.901 0.232
07:50 1025 30.27 854 25.22 5.5 41.9 76 1.7 35 5.941 0.234
07:51 1025 30.27 854 25.22 5.6 42.1 75 1.5 34.7 6.043 0.238
07:52 1025 30.27 854 25.22 5.7 42.2 74 1.5 34.7 6.111 0.241
07:53 1025 30.27 854 25.22 5.9 42.5 73 1.5 34.6 6.252 0.246
07:54 1025 30.27 854 25.22 6 42.8 73 1.5 34.8 6.377 0.251
07:55 1025 30.27 854 25.22 6.2 43.2 73 1.7 35 6.518 0.257
07:56 1025 30.27 854 25.22 6.3 43.3 72 1.6 34.9 6.62 0.261
07:57 1025 30.27 854 25.22 6.3 43.4 71 1.5 34.6 6.671 0.263
07:58 1025 30.27 854 25.22 6.4 43.5 73 1.9 35.4 6.767 0.266
07:59 1025 30.27 854 25.22 6.5 43.6 72 1.9 35.4 6.801 0.268
08:00 1025 30.27 854 25.22 6.5 43.7 74 2.2 36 6.835 0.269
08:01 1025 30.27 854 25.22 6.5 43.6 73 2 35.6 6.845 0.269
08:02 1025 30.27 854 25.22 6.5 43.6 72 1.8 35.2 6.862 0.27
08:03 1025 30.27 854 25.22 6.5 43.8 74 2.2 35.9 6.901 0.272
08:04 1025 30.27 854 25.22 6.6 43.9 71 1.8 35.2 6.98 0.275
08:05 1025 30.27 854 25.22 6.7 44.1 72 2 35.5 7.04 0.277
08:06 1025 30.27 854 25.22 6.8 44.2 73 2.3 36.1 7.12 0.28
08:07 1025 30.27 854 25.22 6.8 44.2 73 2.3 36.2 7.16 0.282
08:08 1025 30.27 854 25.22 6.8 44.3 74 2.6 36.6 7.24 0.285
08:09 1025 30.27 854 25.22 6.9 44.5 74 2.6 36.6 7.28 0.287
08:10 1025 30.27 854 25.22 7 44.7 72 2.4 36.3 7.42 0.292
08:11 1025 30.27 854 25.22 7.2 44.9 72 2.4 36.4 7.51 0.296
08:12 1025 30.27 854 25.22 7.3 45.1 73 2.7 36.9 7.61 0.3
08:13 1025 30.27 854 25.22 7.4 45.2 71 2.5 36.5 7.69 0.303
08:14 1025 30.27 854 25.22 7.5 45.4 71 2.5 36.5 7.8 0.307
08:15 1025 30.27 854 25.22 7.6 45.6 73 3 37.3 7.89 0.311
08:16 1025 30.27 854 25.22 7.6 45.7 72 2.8 37.1 8.02 0.316
08:17 1025 30.27 854 25.22 7.7 45.9 68 2.2 36 8.07 0.318
08:18 1025 30.27 854 25.22 7.8 46.1 70 2.8 37 8.17 0.322
08:19 1025 30.27 854 25.22 7.9 46.3 67 2.2 35.9 8.28 0.326
08:20 1025 30.27 854 25.22 8 46.4 68 2.5 36.5 8.31 0.327
08:21 1025 30.27 854 25.22 8.1 46.6 67 2.4 36.3 8.41 0.331
08:22 1025 30.27 854 25.22 8.2 46.7 69 2.8 37.1 8.49 0.334
08:23 1025 30.27 854 25.22 8.3 46.9 71 3.3 37.9 8.62 0.339
08:24 1025 30.27 854 25.22 8.3 47 69 3 37.4 8.72 0.343
08:25 1025 30.27 854 25.22 8.4 47.2 70 3.2 37.8 8.76 0.345
08:26 1025 30.27 854 25.22 8.5 47.2 69 3.1 37.5 8.83 0.348
08:27 1025 30.27 854 25.22 8.6 47.4 69 3.2 37.8 8.89 0.35
08:28 1025 30.27 854 25.22 8.6 47.5 68 3.1 37.7 9.02 0.355
08:29 1025 30.27 854 25.22 8.7 47.7 70 3.6 38.5 9.11 0.359
08:30 1025 30.27 854 25.22 8.9 48 69 3.4 38.2 9.23 0.363
08:31 1025 30.27 854 25.22 9 48.1 68 3.4 38 9.32 0.367
08:32 1025 30.27 854 25.22 9.1 48.3 66 3 37.4 9.38 0.369
08:33 1025 30.27 854 25.22 9.1 48.4 68 3.5 38.3 9.47 0.373
08:34 1025 30.27 854 25.22 9.2 48.6 67 3.4 38.1 9.57 0.377
08:35 1025 30.27 854 25.22 9.3 48.8 67 3.5 38.3 9.69 0.381
08:36 1025 30.27 854 25.22 9.5 49 67 3.7 38.6 9.78 0.385
08:37 1025 30.27 854 25.22 9.6 49.2 64 3.1 37.6 9.92 0.391
08:38 1025 30.27 854 25.22 9.7 49.4 64 3.2 37.8 10.05 0.396
08:39 1025 30.27 854 25.22 9.8 49.6 65 3.5 38.3 10.17 0.4
08:40 1025 30.27 854 25.22 10 50 64 3.6 38.5 10.33 0.407
08:41 1025 30.27 854 25.22 10.1 50.2 64 3.6 38.5 10.43 0.411
08:42 1025 30.27 854 25.22 10.2 50.4 63 3.6 38.4 10.54 0.415
08:43 1025 30.27 854 25.22 10.4 50.6 58 2.5 36.4 10.64 0.419
08:44 1025 30.27 854 25.22 10.5 50.8 59 2.9 37.3 10.79 0.425
08:45 1025 30.27 854 25.22 10.6 51 55 2.1 35.8 10.97 0.432
08:46 1025 30.27 854 25.22 10.7 51.2 54 1.8 35.3 11.05 0.435
08:47 1025 30.27 854 25.22 10.8 51.4 59 3.1 37.5 11.17 0.44
08:48 1025 30.27 854 25.22 10.9 51.6 58 3 37.4 11.31 0.445
08:49 1025 30.27 854 25.22 11.1 51.9 56 2.6 36.7 11.45 0.451
08:50 1025 30.27 854 25.22 11.2 52.1 54 2.2 36 11.6 0.457
08:51 1025 30.27 854 25.22 11.2 52.1 55 2.4 36.4 11.64 0.458
08:52 1025 30.27 854 25.22 11.2 52.2 53 1.9 35.5 11.74 0.462
08:53 1025 30.27 854 25.22 11.3 52.3 56 2.9 37.3 11.78 0.464
08:54 1025 30.27 854 25.22 11.3 52.4 52 1.9 35.3 11.84 0.466
08:55 1025 30.27 854 25.22 11.3 52.4 56 2.8 37.1 11.83 0.466
08:56 1025 30.27 854 25.22 11.3 52.4 54 2.5 36.5 11.8 0.465
08:57 1025 30.27 854 25.22 11.3 52.3 55 2.8 37 11.82 0.465
08:58 1025 30.27 854 25.22 11.3 52.4 54 2.4 36.3 11.81 0.465
08:59 1025 30.27 854 25.22 11.3 52.3 54 2.4 36.4 11.85 0.467
09:00 1025 30.27 854 25.22 11.4 52.5 55 2.7 36.9 11.9 0.469
09:01 1025 30.27 854 25.22 11.4 52.5 56 2.9 37.3 11.93 0.47
09:02 1025 30.27 854 25.22 11.4 52.5 55 2.6 36.8 11.94 0.47
09:03 1025 30.27 854 25.22 11.4 52.6 51 1.7 35 12.05 0.474
09:04 1025 30.27 854 25.22 11.5 52.7 50 1.6 34.9 12.07 0.475
09:05 1025 30.27 854 25.22 11.6 52.8 55 2.8 37.1 12.16 0.479
09:06 1025 30.27 854 25.22 11.6 53 52 2.2 35.9 12.26 0.483
09:07 1025 30.27 854 25.22 11.7 53.1 54 2.8 37 12.33 0.485
09:08 1025 30.27 854 25.22 11.8 53.3 55 3.2 37.8 12.39 0.488
09:09 1025 30.27 854 25.22 11.9 53.5 54 3 37.5 12.5 0.492
09:10 1025 30.27 854 25.22 12 53.6 56 3.6 38.6 12.59 0.496
09:11 1025 30.27 854 25.22 12.1 53.7 53 2.9 37.2 12.67 0.499
09:12 1025 30.27 854 25.22 12.1 53.9 51 2.4 36.3 12.7 0.5
09:13 1025 30.27 854 25.22 12.2 53.9 52 2.6 36.7 12.75 0.502
09:14 1025 30.27 854 25.22 12.2 54 48 1.7 35 12.8 0.504
09:15 1025 30.27 854 25.22 12.3 54.1 52 2.8 37 12.82 0.505
09:16 1025 30.27 854 25.22 12.4 54.3 48 1.7 35.1 12.92 0.509
09:17 1025 30.27 854 25.22 12.4 54.4 52 3 37.3 12.98 0.511
09:18 1025 30.27 854 25.22 12.6 54.6 50 2.5 36.4 13.08 0.515
09:19 1025 30.27 854 25.22 12.6 54.8 49 2.2 35.9 13.09 0.515
09:20 1025 30.27 854 25.22 12.7 54.8 52 3.1 37.6 13.11 0.516
09:21 1025 30.27 854 25.22 12.7 54.9 51 2.9 37.2 13.13 0.517
09:22 1025 30.27 854 25.22 12.8 55.1 55 4.1 39.4 13.22 0.52
09:23 1025 30.27 854 25.22 12.9 55.3 48 2.4 36.2 13.36 0.526
09:24 1025 30.27 854 25.22 13 55.3 49 2.6 36.7 13.35 0.526
09:25 1025 30.27 854 25.22 13 55.3 47 2.1 35.7 13.43 0.529
09:26 1025 30.27 854 25.22 13 55.3 50 2.9 37.2 13.46 0.53
09:27 1025 30.27 854 25.22 13.1 55.6 49 2.7 36.8 13.5 0.531
09:28 1025 30.27 854 25.22 13.2 55.7 47 2.3 36.1 13.46 0.53
09:29 1025 30.27 854 25.22 13.3 55.9 51 3.3 38 13.5 0.531
09:30 1025 30.27 854 25.22 13.3 55.9 45 1.7 35 13.52 0.532
09:31 1025 30.27 854 25.22 13.3 55.9 48 2.7 36.9 13.63 0.537
09:32 1025 30.27 854 25.22 13.4 56.1 44 1.6 34.8 13.66 0.538
09:33 1025 30.27 854 25.22 13.4 56.1 45 1.9 35.5 13.69 0.539
09:34 1025 30.27 854 25.22 13.5 56.3 44 1.7 35 13.76 0.542
09:35 1025 30.27 854 25.22 13.5 56.3 46 2.2 36 13.87 0.546
09:36 1025 30.27 854 25.22 13.6 56.4 48 2.7 36.8 13.88 0.546
09:37 1025 30.27 854 25.22 13.6 56.6 45 2.1 35.8 13.97 0.55
09:38 1025 30.27 854 25.22 13.7 56.6 47 2.8 37 14.07 0.554
09:39 1025 30.27 854 25.22 13.7 56.6 48 3.1 37.5 14.05 0.553
09:40 1025 30.27 854 25.22 13.7 56.7 50 3.6 38.5 14.09 0.555
09:41 1025 30.27 854 25.22 13.8 56.9 44 1.8 35.2 14.18 0.558
09:42 1025 30.27 854 25.22 13.9 56.9 43 1.7 35 14.27 0.562
09:43 1025 30.27 854 25.22 13.9 56.9 46 2.5 36.5 14.38 0.566
09:44 1025 30.27 854 25.22 13.9 57.1 48 3.2 37.8 14.44 0.569
09:45 1025 30.27 854 25.22 14.1 57.3 44 2.1 35.7 14.56 0.573
09:46 1025 30.27 854 25.22 14.1 57.5 46 2.8 37 14.69 0.578
09:47 1025 30.27 854 25.22 14.2 57.5 45 2.5 36.4 14.71 0.579
09:48 1025 30.27 854 25.22 14.2 57.5 49 3.7 38.6 14.74 0.58
09:49 1025 30.27 854 25.22 14.3 57.8 42 1.7 35 14.76 0.581
09:50 1025 30.27 854 25.22 14.4 57.9 43 1.9 35.5 14.75 0.581
09:51 1025 30.27 854 25.22 14.5 58 48 3.6 38.5 14.71 0.579
09:52 1025 30.27 854 25.22 14.5 58.1 48 3.6 38.5 14.7 0.579
09:53 1025 30.27 854 25.22 14.6 58.2 42 2 35.6 14.81 0.583
09:54 1025 30.27 854 25.22 14.6 58.3 47 3.5 38.3 14.88 0.586
09:55 1025 30.27 854 25.22 14.8 58.6 42 1.9 35.4 14.94 0.588
09:56 1025 30.27 854 25.22 14.8 58.7 51 5 41 14.97 0.589
09:57 1025 30.27 854 25.22 15 58.9 46 3.6 38.6 15.11 0.595
09:58 1025 30.27 854 25.22 15.1 59.2 40 1.7 35.1 15.18 0.598
09:59 1025 30.27 854 25.22 15.2 59.4 49 4.7 40.4 15.27 0.601
10:00 1025 30.27 854 25.22 15.4 59.7 41 2.2 36 15.33 0.604
10:01 1025 30.27 854 25.22 15.3 59.6 41 2.2 36 15.19 0.598
10:02 1025 30.27 854 25.22 15.3 59.5 48 4.5 40.1 15.2 0.598
10:03 1025 30.27 854 25.22 15.3 59.5 44 3.1 37.6 15.26 0.601
10:04 1025 30.27 854 25.22 15.4 59.8 46 3.9 39 15.39 0.606
10:05 1025 30.27 854 25.22 15.6 60 42 2.9 37.2 15.51 0.611
10:06 1025 30.27 854 25.22 15.7 60.3 41 2.7 36.8 15.7 0.618
10:07 1025 30.27 854 25.22 15.8 60.5 48 5 41 15.85 0.624
10:08 1025 30.27 854 25.22 15.8 60.5 46 4.2 39.6 15.9 0.626
10:09 1025 30.27 854 25.22 15.8 60.5 43 3.4 38.1 15.99 0.63
10:10 1025 30.27 854 25.22 15.8 60.5 40 2.4 36.4 15.9 0.626
10:11 1025 30.27 854 25.22 15.8 60.4 40 2.3 36.1 15.72 0.619
10:12 1025 30.27 854 25.22 15.7 60.3 38 1.6 34.9 15.72 0.619
10:13 1025 30.27 854 25.22 15.6 60.1 39 1.8 35.2 15.55 0.612
10:14 1025 30.27 854 25.22 15.6 60.1 38 1.3 34.4 15.58 0.613
10:15 1025 30.27 854 25.22 15.7 60.3 38 1.6 34.8 15.65 0.616
10:16 1025 30.27 854 25.22 15.8 60.4 43 3.4 38.1 15.77 0.621
10:17 1025 30.27 854 25.22 15.9 60.5 42 3.2 37.8 15.82 0.623
10:18 1025 30.27 854 25.22 16 60.8 39 2.2 35.9 16.05 0.632
10:19 1025 30.27 854 25.22 16.1 60.9 42 3.2 37.8 15.98 0.629
10:20 1025 30.27 854 25.22 16.1 60.9 40 2.7 36.8 15.95 0.628
10:21 1025 30.27 854 25.22 16 60.7 39 2.3 36.1 15.85 0.624
10:22 1025 30.27 854 25.22 15.9 60.7 45 4 39.2 15.88 0.625
10:23 1025 30.27 854 25.22 16 60.7 44 4 39.1 15.89 0.626
10:24 1025 30.27 854 25.22 16 60.8 37 1.5 34.7 15.96 0.628
10:25 1025 30.27 854 25.22 16.1 61 39 2.3 36.2 16.12 0.635
10:26 1025 30.27 854 25.22 16.2 61.1 41 2.9 37.3 16.25 0.64
10:27 1025 30.27 854 25.22 16.3 61.4 39 2.6 36.6 16.41 0.646
10:28 1025 30.27 854 25.22 16.4 61.6 41 3.3 38 16.39 0.645
10:29 1025 30.27 854 25.22 16.4 61.5 41 3.1 37.6 16.23 0.639
10:30 1025 30.27 854 25.22 16.3 61.4 42 3.4 38.2 16.16 0.636
10:31 1025 30.27 854 25.22 16.3 61.4 43 3.9 39 16.22 0.639
10:32 1025 30.27 854 25.22 16.4 61.5 44 4.3 39.7 16.28 0.641
10:33 1025 30.27 854 25.22 16.4 61.5 43 3.9 39.1 16.26 0.64
10:34 1025 30.27 854 25.22 16.4 61.6 39 2.6 36.8 16.3 0.642
10:35 1025 30.27 854 25.22 16.4 61.5 41 3.4 38.1 16.24 0.639
10:36 1025 30.27 854 25.22 16.4 61.6 45 4.5 40.2 16.28 0.641
10:37 1025 30.27 854 25.22 16.5 61.6 41 3.1 37.6 16.3 0.642
10:38 1025 30.27 854 25.22 16.4 61.6 41 3.1 37.6 16.32 0.643
10:39 1025 30.27 854 25.22 16.4 61.5 48 5.4 41.7 16.31 0.642
10:40 1025 30.27 854 25.22 16.4 61.5 39 2.4 36.3 16.32 0.643
10:41 1025 30.27 854 25.22 16.5 61.6 42 3.6 38.4 16.29 0.641
10:42 1025 30.27 854 25.22 16.5 61.7 42 3.5 38.4 16.32 0.643
10:43 1025 30.27 854 25.22 16.5 61.7 44 4.4 40 16.35 0.644
10:44 1025 30.27 854 25.22 16.5 61.7 44 4.3 39.7 16.35 0.644
10:45 1025 30.27 854 25.22 16.5 61.7 42 3.6 38.4 16.45 0.648
10:46 1025 30.27 854 25.22 16.6 61.8 44 4.3 39.8 16.54 0.651
10:47 1025 30.27 854 25.22 16.6 61.8 42 3.8 38.8 16.54 0.651
10:48 1025 30.27 854 25.22 16.6 61.9 46 5 41 16.61 0.654
10:49 1025 30.27 854 25.22 16.6 61.9 42 3.7 38.7 16.66 0.656
10:50 1025 30.27 854 25.22 16.6 62 39 2.8 37 16.59 0.653
10:51 1025 30.27 854 25.22 16.6 61.9 38 2.5 36.5 16.49 0.649
10:52 1025 30.27 854 25.22 16.6 61.9 40 3.2 37.8 16.45 0.648
10:53 1025 30.27 854 25.22 16.6 62 42 3.8 38.8 16.5 0.65
10:54 1025 30.27 854 25.22 16.7 62.1 46 5.2 41.4 16.58 0.653
10:55 1025 30.27 854 25.22 16.7 62.1 48 5.7 42.3 16.64 0.655
10:56 1025 30.27 854 25.22 16.8 62.2 45 5 41 16.7 0.657
10:57 1025 30.27 854 25.22 16.8 62.3 41 3.5 38.3 16.79 0.661
10:58 1025 30.27 854 25.22 16.8 62.2 39 2.8 37.1 16.68 0.657
10:59 1025 30.27 854 25.22 16.7 62.1 37 2.1 35.8 16.66 0.656
11:00 1025 30.27 854 25.22 16.7 62.1 43 4.2 39.6 16.77 0.66
11:01 1025 30.27 854 25.22 16.8 62.2 35 1.2 34.2 16.73 0.659
11:02 1025 30.27 854 25.22 16.8 62.3 33 0.7 33.2 16.67 0.656
11:03 1025 30.27 854 25.22 16.7 62.1 40 3.1 37.5 16.6 0.654
11:04 1025 30.27 854 25.22 16.7 62 42 3.9 39 16.65 0.656
11:05 1025 30.27 854 25.22 16.8 62.2 36 1.9 35.3 16.83 0.663
11:06 1025 30.27 854 25.22 16.9 62.4 39 2.8 37 16.85 0.663
11:07 1025 30.27 854 25.22 17 62.5 44 4.9 40.8 16.95 0.667
11:08 1025 30.27 854 25.22 17 62.7 38 2.7 36.9 17.01 0.67
11:09 1025 30.27 854 25.22 17 62.6 37 2.2 36 16.99 0.669
11:10 1025 30.27 854 25.22 16.9 62.5 37 2.3 36.2 16.91 0.666
11:11 1025 30.27 854 25.22 16.9 62.4 35 1.4 34.6 16.9 0.665
11:12 1025 30.27 854 25.22 17 62.5 40 3.3 37.9 16.97 0.668
11:13 1025 30.27 854 25.22 17.1 62.7 34 1 33.9 17.09 0.673
11:14 1025 30.27 854 25.22 17.2 63 45 5.2 41.3 17.26 0.68
11:15 1025 30.27 854 25.22 17.4 63.2 33 1.2 34.2 17.3 0.681
11:16 1025 30.27 854 25.22 17.2 63 35 1.7 35 17.19 0.677
11:17 1025 30.27 854 25.22 17.2 62.9 33 0.8 33.5 17.21 0.678
11:18 1025 30.27 854 25.22 17.1 62.8 33 0.6 33.1 17.23 0.678
11:19 1025 30.27 854 25.22 17.1 62.8 37 2.3 36.1 17.3 0.681
11:20 1025 30.27 854 25.22 17.2 62.9 34 1.2 34.2 17.37 0.684
11:21 1025 30.27 854 25.22 17.2 62.9 32 0.6 33 17.23 0.678
11:22 1025 30.27 854 25.22 17.2 62.9 39 3.3 37.9 17.32 0.682
11:23 1025 30.27 854 25.22 17.2 63 36 2 35.6 17.31 0.681
11:24 1025 30.27 854 25.22 17.3 63.1 33 1 33.9 17.39 0.685
11:25 1025 30.27 854 25.22 17.3 63.2 39 3.4 38.1 17.53 0.69
11:26 1025 30.27 854 25.22 17.4 63.4 35 2 35.6 17.61 0.693
11:27 1025 30.27 854 25.22 17.5 63.6 35 1.9 35.4 17.67 0.696
11:28 1025 30.27 854 25.22 17.6 63.6 38 3 37.5 17.77 0.7
11:29 1025 30.27 854 25.22 17.6 63.7 33 1.1 34 17.85 0.703
11:30 1025 30.27 854 25.22 17.6 63.7 35 2.2 35.9 17.89 0.704
11:31 1025 30.27 854 25.22 17.6 63.8 36 2.5 36.5 17.85 0.703
11:32 1025 30.27 854 25.22 17.7 63.9 39 3.7 38.7 17.8 0.701
11:33 1025 30.27 854 25.22 17.7 63.8 37 3 37.5 17.81 0.701
11:34 1025 30.27 854 25.22 17.6 63.7 36 2.5 36.5 17.77 0.7
11:35 1025 30.27 854 25.22 17.6 63.7 37 2.8 37.1 17.8 0.701
11:36 1025 30.27 854 25.22 17.7 63.8 33 1.3 34.3 17.98 0.708
11:37 1025 30.27 854 25.22 17.7 63.9 33 1.2 34.2 17.96 0.707
11:38 1025 30.27 854 25.22 17.7 63.9 33 1.5 34.7 18.03 0.71
11:39 1025 30.27 854 25.22 17.7 63.8 41 4.4 39.9 18.03 0.71
11:40 1025 30.27 854 25.22 17.7 63.9 40 4 39.2 18.15 0.715
11:41 1025 30.27 854 25.22 17.8 64.1 34 2 35.5 18.32 0.721
11:42 1025 30.27 854 25.22 17.9 64.3 42 5 41 18.42 0.725
11:43 1025 30.27 854 25.22 18.1 64.6 39 4 39.1 18.64 0.734
11:44 1025 30.27 854 25.22 18.5 65.2 35 2.8 37 18.84 0.742
11:45 1025 30.27 854 25.22 18.7 65.7 37 4 39.2 19.07 0.751
11:46 1025 30.27 854 25.22 19 66.1 37 4.3 39.7 19.23 0.757
11:47 1025 30.27 854 25.22 19.1 66.3 36 3.9 39.1 19.29 0.759
11:48 1025 30.27 854 25.22 19.2 66.5 38 4.6 40.4 19.43 0.765
11:49 1025 30.27 854 25.22 19.2 66.5 36 3.8 38.9 19.33 0.761
11:50 1025 30.27 854 25.22 19.1 66.3 34 2.8 37.1 19.04 0.75
11:51 1025 30.27 854 25.22 18.8 65.9 33 2.5 36.4 18.77 0.739
11:52 1025 30.27 854 25.22 18.7 65.6 33 2.2 35.9 18.63 0.733
11:53 1024 30.24 854 25.22 18.5 65.4 37 3.6 38.5 18.56 0.731
11:54 1024 30.24 854 25.22 18.5 65.3 32 1.8 35.2 18.55 0.73
11:55 1024 30.24 854 25.22 18.5 65.3 39 4.6 40.3 18.48 0.728
11:56 1024 30.24 854 25.22 18.5 65.3 35 2.9 37.3 18.53 0.73
11:57 1024 30.24 854 25.22 18.5 65.3 37 3.9 39 18.6 0.732
11:58 1024 30.24 854 25.22 18.5 65.3 37 3.7 38.7 18.66 0.735
11:59 1024 30.24 854 25.22 18.6 65.4 32 1.8 35.3 18.72 0.737
12:00 1024 30.24 854 25.22 18.6 65.4 33 2.2 36 18.67 0.735
12:01 1024 30.24 854 25.22 18.6 65.5 33 2 35.6 18.65 0.734
12:02 1024 30.24 854 25.22 18.7 65.6 32 1.8 35.3 18.71 0.737
12:03 1024 30.24 854 25.22 18.7 65.6 32 1.9 35.3 18.69 0.736
12:04 1024 30.24 854 25.22 18.8 65.8 32 1.9 35.3 18.74 0.738
12:05 1024 30.24 854 25.22 18.8 65.8 36 3.5 38.4 18.68 0.735
12:06 1024 30.24 854 25.22 18.8 65.9 41 5.3 41.5 18.79 0.74
12:07 1024 30.24 854 25.22 18.8 65.8 35 3.2 37.8 18.88 0.743
12:08 1024 30.24 854 25.22 18.8 65.8 34 2.5 36.5 18.88 0.743
12:09 1024 30.24 854 25.22 18.8 65.8 33 2.5 36.5 18.98 0.747
12:10 1024 30.24 854 25.22 18.8 65.8 39 4.8 40.7 19.07 0.751
12:11 1024 30.24 854 25.22 18.8 65.9 38 4.3 39.7 19.17 0.755
12:12 1024 30.24 854 25.22 19 66.1 33 2.4 36.3 19.17 0.755
12:13 1024 30.24 854 25.22 19 66.1 35 3.2 37.7 19.03 0.749
12:14 1024 30.24 854 25.22 19 66.2 35 3.5 38.2 19.05 0.75
12:15 1024 30.24 854 25.22 19.1 66.4 34 3.2 37.7 19.25 0.758
12:16 1024 30.24 854 25.22 19.2 66.6 33 2.9 37.3 19.49 0.767
12:17 1024 30.24 853 25.19 19.2 66.5 33 2.6 36.7 19.51 0.768
12:18 1024 30.24 854 25.22 19 66.2 34 2.9 37.2 19.48 0.767
12:19 1024 30.24 853 25.19 19 66.2 42 6 42.8 19.43 0.765
12:20 1024 30.24 853 25.19 19 66.2 33 2.5 36.5 19.46 0.766
12:21 1024 30.24 853 25.19 19 66.3 37 4.1 39.4 19.4 0.764
12:22 1024 30.24 853 25.19 19.1 66.4 34 3.1 37.6 19.39 0.763
12:23 1024 30.24 853 25.19 19.2 66.6 33 2.6 36.7 19.51 0.768
12:24 1024 30.24 853 25.19 19.4 66.9 32 2.6 36.7 19.74 0.777
12:25 1024 30.24 853 25.19 19.5 67.1 34 3.4 38.1 19.89 0.783
12:26 1024 30.24 853 25.19 19.4 66.9 32 2.3 36.2 19.88 0.783
12:27 1024 30.24 853 25.19 19.3 66.8 36 4 39.2 19.84 0.781
12:28 1024 30.24 853 25.19 19.4 66.9 38 4.7 40.5 19.92 0.784
12:29 1024 30.24 853 25.19 19.5 67.1 43 6.8 44.3 19.98 0.787
12:30 1024 30.24 853 25.19 19.6 67.3 38 5 41 19.89 0.783
12:31 1024 30.24 853 25.19 19.7 67.4 35 3.9 39 19.9 0.783
12:32 1024 30.24 853 25.19 19.8 67.6 37 4.7 40.5 19.94 0.785
12:33 1024 30.24 853 25.19 19.8 67.7 36 4.4 39.9 20.01 0.788
12:34 1024 30.24 853 25.19 19.9 67.8 42 6.9 44.4 19.92 0.784
12:35 1024 30.24 853 25.19 19.8 67.6 41 6.2 43.2 19.8 0.78
12:36 1024 30.24 853 25.19 19.7 67.5 35 3.8 38.9 19.67 0.774
12:37 1024 30.24 853 25.19 19.6 67.3 34 3.6 38.4 19.54 0.769
12:38 1024 30.24 853 25.19 19.5 67.1 40 5.7 42.2 19.56 0.77
12:39 1024 30.24 853 25.19 19.6 67.2 32 2.5 36.4 19.63 0.773
12:40 1024 30.24 853 25.19 19.5 67.1 32 2.7 36.9 19.59 0.771
12:41 1024 30.24 853 25.19 19.5 67.1 33 2.9 37.2 19.54 0.769
12:42 1024 30.24 853 25.19 19.5 67.2 35 3.8 38.8 19.62 0.772
12:43 1024 30.24 853 25.19 19.6 67.2 37 4.7 40.5 19.6 0.772
12:44 1024 30.24 853 25.19 19.5 67 39 5.2 41.4 19.73 0.777
12:45 1024 30.24 853 25.19 19.6 67.2 35 3.7 38.7 19.83 0.781
12:46 1024 30.24 853 25.19 19.7 67.4 40 5.9 42.6 19.96 0.786
12:47 1024 30.24 853 25.19 19.9 67.7 35 4.3 39.7 20.15 0.793
12:48 1024 30.24 853 25.19 20.1 68.2 36 4.8 40.6 20.35 0.801
12:49 1024 30.24 853 25.19 20.3 68.6 30 2.5 36.6 20.71 0.815
12:50 1024 30.24 853 25.19 20.4 68.8 36 4.9 40.7 20.86 0.821
12:51 1024 30.24 853 25.19 20.5 68.8 31 3.1 37.5 20.95 0.825
12:52 1024 30.24 853 25.19 20.5 69 39 6.1 43.1 21.04 0.828
12:53 1024 30.24 853 25.19 20.8 69.4 38 6.1 42.9 21.23 0.836
12:54 1024 30.24 853 25.19 21 69.7 33 4.5 40 21.41 0.843
12:55 1024 30.24 853 25.19 20.9 69.7 29 2.6 36.8 21.3 0.839
12:56 1024 30.24 853 25.19 21 69.7 34 4.9 40.8 21.26 0.837
12:57 1024 30.24 853 25.19 21.1 70 35 5.3 41.6 21.4 0.843
12:58 1024 30.24 853 25.19 21.3 70.3 34 4.8 40.6 21.41 0.843
12:59 1024 30.24 853 25.19 21.2 70.2 33 4.5 40 21.2 0.835
13:00 1024 30.24 853 25.19 21.1 70 33 4.2 39.5 21.05 0.829
13:01 1024 30.24 853 25.19 21 69.8 32 4.1 39.3 20.93 0.824
13:02 1024 30.24 853 25.19 20.8 69.5 35 5.1 41.2 20.76 0.817
13:03 1024 30.24 853 25.19 20.7 69.3 31 3.2 37.8 20.65 0.813
13:04 1024 30.24 853 25.19 20.6 69.1 38 6.1 43 20.55 0.809
13:05 1024 30.24 853 25.19 20.6 69.1 32 3.5 38.2 20.55 0.809
13:06 1024 30.24 853 25.19 20.6 69 30 2.5 36.6 20.51 0.807
13:07 1024 30.24 853 25.19 20.6 69.1 31 3.1 37.7 20.58 0.81
13:08 1024 30.24 853 25.19 20.7 69.2 33 3.8 38.8 20.72 0.816
13:09 1024 30.24 853 25.19 20.7 69.3 31 3.4 38.1 20.82 0.82
13:10 1024 30.24 853 25.19 20.7 69.2 41 7 44.6 20.83 0.82
13:11 1024 30.24 853 25.19 20.6 69.1 30 2.7 36.9 20.78 0.818
13:12 1024 30.24 853 25.19 20.6 69.1 31 3.2 37.7 20.79 0.819
13:13 1024 30.24 853 25.19 20.6 69 34 4.3 39.7 20.83 0.82
13:14 1024 30.24 853 25.19 20.7 69.2 28 1.9 35.4 20.9 0.823
13:15 1024 30.24 853 25.19 20.8 69.4 28 1.8 35.3 21.05 0.829
13:16 1024 30.24 853 25.19 21 69.8 37 5.9 42.6 21.35 0.841
13:17 1024 30.24 853 25.19 21.2 70.1 29 2.5 36.4 21.46 0.845
13:18 1024 30.24 853 25.19 21.2 70.2 28 2.1 35.9 21.43 0.844
13:19 1024 30.24 853 25.19 21.1 70.1 33 4.4 39.9 21.2 0.835
13:20 1024 30.24 853 25.19 21 69.8 29 2.4 36.2 21.11 0.831
13:21 1024 30.24 853 25.19 21 69.7 36 5.3 41.6 21.2 0.835
13:22 1024 30.24 853 25.19 21 69.8 30 2.9 37.2 21.27 0.837
13:23 1024 30.24 853 25.19 21 69.7 29 2.2 36 21.14 0.832
13:24 1024 30.24 853 25.19 20.9 69.6 28 2.1 35.7 21.08 0.83
13:25 1024 30.24 853 25.19 20.9 69.6 30 2.9 37.2 20.99 0.826
13:26 1024 30.24 853 25.19 20.9 69.5 28 1.9 35.5 21.07 0.83
13:27 1024 30.24 853 25.19 20.9 69.7 32 3.7 38.7 21.11 0.831
13:28 1024 30.24 853 25.19 21 69.8 29 2.2 36 21.41 0.843
13:29 1024 30.24 853 25.19 21.2 70.2 29 2.4 36.4 21.7 0.854
13:30 1024 30.24 853 25.19 21.4 70.5 33 4.6 40.3 21.8 0.858
13:31 1024 30.24 853 25.19 21.6 70.8 38 7 44.6 21.96 0.865
13:32 1024 30.24 853 25.19 21.7 71 29 3.1 37.5 22.01 0.867
13:33 1024 30.24 853 25.19 21.7 71 32 4.3 39.8 21.94 0.864
13:34 1024 30.24 853 25.19 21.7 71 32 4.3 39.8 21.96 0.865
13:35 1024 30.24 853 25.19 21.7 71 30 3.4 38.2 21.97 0.865
13:36 1024 30.24 853 25.19 21.7 71 27 1.8 35.3 21.96 0.865
13:37 1024 30.24 853 25.19 21.8 71.2 30 3.4 38.1 21.97 0.865
13:38 1024 30.24 853 25.19 21.8 71.3 32 4.4 39.9 22 0.866
13:39 1024 30.24 853 25.19 21.8 71.2 29 3 37.3 21.83 0.859
13:40 1024 30.24 853 25.19 21.5 70.6 30 3.3 37.9 21.64 0.852
13:41 1024 30.24 853 25.19 21.3 70.4 38 6.7 44 21.52 0.847
13:42 1024 30.24 853 25.19 21.3 70.4 29 2.6 36.7 21.47 0.845
13:43 1024 30.24 853 25.19 21.2 70.2 32 3.8 38.9 21.34 0.84
13:44 1024 30.24 853 25.19 21.1 69.9 33 4.6 40.2 21.27 0.837
13:45 1024 30.24 853 25.19 21 69.9 38 6.5 43.7 21.18 0.834
13:46 1024 30.24 853 25.19 21.1 70 32 3.8 38.9 21.29 0.838
13:47 1024 30.24 853 25.19 21.2 70.2 31 3.6 38.5 21.2 0.835
13:48 1024 30.24 853 25.19 21.2 70.2 40 7.1 44.8 21.24 0.836
13:49 1024 30.24 853 25.19 21.3 70.3 28 2.3 36.2 21.35 0.841
13:50 1024 30.24 853 25.19 21.3 70.3 36 5.6 42.1 21.39 0.842
13:51 1024 30.24 853 25.19 21.4 70.5 32 4 39.3 21.44 0.844
13:52 1024 30.24 853 25.19 21.4 70.6 30 3.1 37.7 21.42 0.843
13:53 1024 30.24 853 25.19 21.3 70.3 33 4.7 40.5 21.27 0.837
13:54 1024 30.24 853 25.19 21.3 70.3 29 2.7 36.9 21.3 0.839
13:55 1024 30.24 853 25.19 21.3 70.3 39 7 44.6 21.34 0.84
13:56 1024 30.24 853 25.19 21.4 70.4 36 6 42.9 21.49 0.846
13:57 1024 30.24 853 25.19 21.4 70.5 30 3.2 37.7 21.63 0.852
13:58 1023 30.21 853 25.19 21.3 70.4 34 4.9 40.9 21.6 0.85
13:59 1023 30.21 853 25.19 21.4 70.6 30 3.3 38 21.68 0.854
14:00 1023 30.21 853 25.19 21.5 70.7 39 7 44.6 21.78 0.857
14:01 1023 30.21 853 25.19 21.5 70.7 28 2.4 36.3 21.79 0.858
14:02 1023 30.21 853 25.19 21.4 70.5 39 6.9 44.4 21.73 0.856
14:03 1023 30.21 853 25.19 21.4 70.5 35 5.4 41.8 21.77 0.857
14:04 1023 30.21 853 25.19 21.4 70.5 30 3.1 37.5 21.72 0.855
14:05 1023 30.21 853 25.19 21.4 70.6 38 6.8 44.2 21.58 0.85
14:06 1023 30.21 853 25.19 21.4 70.6 32 4.3 39.8 21.54 0.848
14:07 1023 30.21 853 25.19 21.5 70.7 32 4.2 39.6 21.63 0.852
14:08 1023 30.21 853 25.19 21.6 70.9 29 2.9 37.2 21.66 0.853
14:09 1023 30.21 853 25.19 21.6 70.9 33 5 40.9 21.64 0.852
14:10 1023 30.21 853 25.19 21.6 70.9 31 4 39.2 21.69 0.854
14:11 1023 30.21 853 25.19 21.7 71.1 28 2.4 36.4 21.75 0.856
14:12 1023 30.21 852 25.16 21.7 71 29 3.2 37.8 21.79 0.858
14:13 1023 30.21 852 25.16 21.6 71 24 0.2 32.4 21.83 0.859
14:14 1023 30.21 852 25.16 21.8 71.2 27 1.9 35.5 21.95 0.864
14:15 1023 30.21 852 25.16 21.9 71.5 28 2.5 36.6 22.07 0.869
14:16 1023 30.21 852 25.16 22.1 71.8 33 5.5 41.9 22.34 0.88
14:17 1023 30.21 852 25.16 22.3 72.2 24 1 33.8 22.61 0.89
14:18 1023 30.21 852 25.16 22.5 72.5 22 0.1 32.3 22.77 0.896
14:19 1023 30.21 852 25.16 22.5 72.4 22 0.1 32.1 22.82 0.898
14:20 1023 30.21 852 25.16 22.5 72.5 23 0.8 33.4 22.89 0.901
14:21 1023 30.21 852 25.16 22.6 72.6 33 5.8 42.4 22.99 0.905
14:22 1023 30.21 852 25.16 22.7 72.9 29 3.8 38.8 23.13 0.911
14:23 1023 30.21 852 25.16 22.9 73.3 27 3.3 38 23.37 0.92
14:24 1023 30.21 852 25.16 22.9 73.2 28 3.8 38.8 23.4 0.921
14:25 1023 30.21 852 25.16 22.6 72.8 23 0.7 33.3 23.13 0.911
14:26 1023 30.21 852 25.16 22.3 72.2 25 1.8 35.2 22.82 0.898
14:27 1023 30.21 852 25.16 22.2 71.9 28 3.1 37.6 22.63 0.891
14:28 1023 30.21 852 25.16 22.2 72 24 0.9 33.5 22.62 0.891
14:29 1023 30.21 852 25.16 22.3 72.1 23 0.6 33 22.39 0.881
14:30 1023 30.21 852 25.16 22.2 71.9 24 1.1 34 22.32 0.879
14:31 1023 30.21 852 25.16 22.1 71.8 24 0.8 33.5 22.44 0.883
14:32 1023 30.21 852 25.16 22.2 71.9 33 5.3 41.6 22.66 0.892
14:33 1023 30.21 852 25.16 22.3 72.1 31 4.6 40.3 22.81 0.898
14:34 1023 30.21 852 25.16 22.3 72.2 26 2.1 35.9 22.79 0.897
14:35 1023 30.21 852 25.16 22.2 72 33 5.3 41.6 22.59 0.889
14:36 1023 30.21 852 25.16 22 71.7 33 5.4 41.8 22.45 0.884
14:37 1023 30.21 852 25.16 22 71.5 23 0.2 32.3 22.34 0.88
14:38 1023 30.21 852 25.16 21.9 71.4 29 3.2 37.8 22.34 0.88
14:39 1023 30.21 852 25.16 22.1 71.7 34 5.8 42.5 22.54 0.887
14:40 1023 30.21 852 25.16 22.3 72.2 28 3.3 37.9 22.76 0.896
14:41 1023 30.21 852 25.16 22.4 72.3 27 2.5 36.5 22.64 0.891
14:42 1023 30.21 852 25.16 22.4 72.3 29 3.8 38.8 22.58 0.889
14:43 1023 30.21 852 25.16 22.3 72.1 26 1.9 35.5 22.55 0.888
14:44 1023 30.21 852 25.16 22.2 72 24 0.8 33.5 22.64 0.891
14:45 1023 30.21 852 25.16 22.1 71.9 28 3.1 37.5 22.74 0.895
14:46 1023 30.21 852 25.16 22.2 71.9 25 1.5 34.7 22.86 0.9
14:47 1023 30.21 852 25.16 22.1 71.8 26 1.8 35.3 22.84 0.899
14:48 1023 30.21 852 25.16 22 71.6 23 0 32 22.74 0.895
14:49 1023 30.21 852 25.16 22 71.5 23 -0 31.9 22.6 0.89
14:50 1023 30.21 852 25.16 22 71.7 24 0.6 33.1 22.63 0.891
14:51 1023 30.21 852 25.16 22.1 71.7 27 2.3 36.1 22.74 0.895
14:52 1023 30.21 852 25.16 22.3 72.1 26 1.9 35.4 22.85 0.9
14:53 1023 30.21 852 25.16 22.3 72.2 29 3.4 38.2 22.9 0.902
14:54 1023 30.21 852 25.16 22.4 72.2 23 0.5 32.9 22.93 0.903
14:55 1023 30.21 852 25.16 22.3 72.2 27 2.6 36.8 22.89 0.901
14:56 1023 30.21 852 25.16 22.2 72 34 5.7 42.3 22.83 0.899
14:57 1023 30.21 852 25.16 22.2 72 27 2.5 36.5 22.87 0.9
14:58 1023 30.21 852 25.16 22.2 72 28 3.1 37.5 22.85 0.9
14:59 1023 30.21 852 25.16 22.2 71.9 25 1.4 34.5 22.71 0.894
15:00 1023 30.21 852 25.16 22.2 71.9 32 5 40.9 22.69 0.893
15:01 1023 30.21 852 25.16 22.3 72.1 27 2.4 36.3 22.82 0.898
15:02 1023 30.21 852 25.16 22.4 72.3 26 2.4 36.3 22.94 0.903
15:03 1023 30.21 852 25.16 22.5 72.6 31 5 40.9 23.07 0.908
15:04 1023 30.21 852 25.16 22.7 72.9 22 0.2 32.4 23.05 0.907
15:05 1023 30.21 852 25.16 22.6 72.7 23 0.9 33.6 22.78 0.897
15:06 1023 30.21 852 25.16 22.5 72.5 28 3.5 38.2 22.77 0.896
15:07 1023 30.21 852 25.16 22.6 72.6 28 3.2 37.7 22.92 0.902
15:08 1023 30.21 852 25.16 22.7 72.9 28 3.7 38.6 22.94 0.903
15:09 1023 30.21 852 25.16 22.8 73 31 4.8 40.6 22.95 0.904
15:10 1023 30.21 852 25.16 22.8 73 27 2.9 37.3 22.89 0.901
15:11 1023 30.21 852 25.16 22.6 72.6 27 2.7 36.8 22.72 0.894
15:12 1023 30.21 852 25.16 22.4 72.3 24 0.9 33.7 22.57 0.889
15:13 1023 30.21 852 25.16 22.3 72.1 33 5.3 41.5 22.55 0.888
15:14 1023 30.21 852 25.16 22.4 72.2 27 2.6 36.6 22.56 0.888
15:15 1023 30.21 852 25.16 22.4 72.3 22 0 32 22.43 0.883
15:16 1023 30.21 852 25.16 22.3 72.2 25 1.4 34.5 22.39 0.881
15:17 1023 30.21 852 25.16 22.3 72.2 29 3.4 38.1 22.4 0.882
15:18 1023 30.21 852 25.16 22.4 72.4 28 3.3 37.9 22.55 0.888
15:19 1023 30.21 852 25.16 22.5 72.5 24 1.3 34.3 22.61 0.89
15:20 1023 30.21 852 25.16 22.6 72.6 26 2.5 36.5 22.55 0.888
15:21 1022 30.18 852 25.16 22.5 72.5 22 0 32 22.5 0.886
15:22 1022 30.18 852 25.16 22.4 72.4 29 3.5 38.4 22.51 0.886
15:23 1022 30.18 852 25.16 22.5 72.5 23 0.4 32.6 22.52 0.887
15:24 1022 30.18 852 25.16 22.5 72.5 27 2.9 37.1 22.56 0.888
15:25 1022 30.18 852 25.16 22.5 72.5 28 3.4 38.1 22.56 0.888
15:26 1022 30.18 852 25.16 22.4 72.3 27 2.5 36.5 22.5 0.886
15:27 1022 30.18 852 25.16 22.4 72.2 26 1.9 35.4 22.5 0.886
15:28 1022 30.18 852 25.16 22.4 72.3 23 0.7 33.3 22.49 0.885
15:29 1022 30.18 852 25.16 22.5 72.4 27 2.6 36.7 22.51 0.886
15:30 1022 30.18 852 25.16 22.5 72.5 29 3.7 38.6 22.56 0.888
15:31 1022 30.18 852 25.16 22.6 72.7 23 0.7 33.2 22.7 0.894
15:32 1022 30.18 852 25.16 22.7 72.9 26 2.6 36.7 22.83 0.899
15:33 1022 30.18 852 25.16 22.9 73.2 29 4.1 39.5 23 0.906
15:34 1022 30.18 852 25.16 23 73.4 24 1.5 34.7 23.02 0.906
15:35 1022 30.18 852 25.16 22.8 73 25 2 35.6 22.78 0.897
15:36 1022 30.18 851 25.13 22.6 72.7 27 3.1 37.6 22.71 0.894
15:37 1022 30.18 852 25.16 22.7 72.8 29 3.7 38.7 22.79 0.897
15:38 1022 30.18 852 25.16 22.6 72.8 25 1.7 35 22.69 0.893
15:39 1022 30.18 851 25.13 22.5 72.5 27 2.6 36.7 22.57 0.889
15:40 1022 30.18 851 25.13 22.4 72.3 30 4.3 39.8 22.57 0.889
15:41 1022 30.18 851 25.13 22.3 72.2 25 1.8 35.2 22.54 0.887
15:42 1022 30.18 851 25.13 22.3 72.1 32 5 40.9 22.49 0.885
15:43 1022 30.18 851 25.13 22.3 72.1 28 3.1 37.5 22.46 0.884
15:44 1022 30.18 851 25.13 22.3 72.1 31 4.5 40.1 22.45 0.884
15:45 1022 30.18 851 25.13 22.3 72.1 26 2.1 35.7 22.5 0.886
15:46 1022 30.18 851 25.13 22.3 72.1 31 4.6 40.2 22.5 0.886
15:47 1022 30.18 851 25.13 22.3 72.1 25 1.4 34.5 22.51 0.886
15:48 1022 30.18 851 25.13 22.3 72.1 27 2.4 36.4 22.47 0.885
15:49 1022 30.18 851 25.13 22.3 72.2 31 4.4 39.9 22.55 0.888
15:50 1022 30.18 851 25.13 22.4 72.4 29 3.6 38.4 22.65 0.892
15:51 1022 30.18 851 25.13 22.5 72.4 28 3.1 37.5 22.64 0.891
15:52 1022 30.18 851 25.13 22.4 72.3 28 3.2 37.8 22.63 0.891
15:53 1022 30.18 851 25.13 22.4 72.2 27 2.6 36.6 22.56 0.888
15:54 1022 30.18 851 25.13 22.4 72.2 23 0.5 32.9 22.58 0.889
15:55 1022 30.18 851 25.13 22.4 72.3 30 4.1 39.3 22.58 0.889
15:56 1022 30.18 851 25.13 22.5 72.4 27 2.8 37 22.7 0.894
15:57 1022 30.18 851 25.13 22.5 72.6 22 -0.2 31.7 22.75 0.896
15:58 1022 30.18 851 25.13 22.7 72.8 26 2.1 35.8 22.81 0.898
15:59 1022 30.18 851 25.13 22.7 72.8 23 0.7 33.3 22.83 0.899
16:00 1022 30.18 851 25.13 22.7 72.9 29 4.2 39.6 22.85 0.9
16:01 1022 30.18 851 25.13 22.8 73 27 2.8 37.1 22.99 0.905
16:02 1022 30.18 851 25.13 22.8 73.1 21 -0.2 31.7 23.03 0.907
16:03 1022 30.18 851 25.13 23 73.4 20 -0.8 30.5 23.13 0.911
16:04 1022 30.18 851 25.13 23.2 73.7 25 2.5 36.5 23.23 0.915
16:05 1022 30.18 851 25.13 23.3 73.9 26 2.6 36.8 23.46 0.924
16:06 1022 30.18 851 25.13 23.3 73.9 26 2.8 37 23.59 0.929
16:07 1022 30.18 851 25.13 23.2 73.8 27 3.3 37.9 23.56 0.928
16:08 1022 30.18 851 25.13 23.2 73.7 22 0.2 32.4 23.47 0.924
16:09 1022 30.18 851 25.13 23.3 73.9 26 3.1 37.6 23.55 0.927
16:10 1022 30.18 851 25.13 23.3 74 25 2.2 36 23.52 0.926
16:11 1022 30.18 851 25.13 23.4 74.1 23 1.2 34.2 23.52 0.926
16:12 1022 30.18 851 25.13 23.5 74.3 30 5.3 41.6 23.7 0.933
16:13 1022 30.18 851 25.13 23.7 74.6 26 3.5 38.2 23.85 0.939
16:14 1022 30.18 851 25.13 23.8 74.9 23 1.9 35.5 23.96 0.943
16:15 1022 30.18 851 25.13 24 75.2 25 3.1 37.6 24.1 0.949
16:16 1022 30.18 851 25.13 24 75.2 25 2.8 37 24.17 0.952
16:17 1022 30.18 851 25.13 23.9 75.1 22 1.3 34.3 24.23 0.954
16:18 1022 30.18 851 25.13 23.8 74.9 23 1.9 35.4 24.24 0.954
16:19 1022 30.18 851 25.13 23.8 74.8 23 1.3 34.4 24.18 0.952
16:20 1022 30.18 851 25.13 23.8 74.8 23 1.4 34.5 24.19 0.952
16:21 1022 30.18 851 25.13 23.8 74.9 24 2.3 36.1 23.89 0.941
16:22 1022 30.18 851 25.13 23.7 74.6 23 1.4 34.5 23.66 0.931
16:23 1022 30.18 851 25.13 23.5 74.2 21 0.1 32.1 23.51 0.926
16:24 1022 30.18 851 25.13 23.3 74 23 1.3 34.4 23.44 0.923
16:25 1022 30.18 851 25.13 23.3 74 27 3.5 38.2 23.51 0.926
16:26 1022 30.18 851 25.13 23.3 73.9 22 0.4 32.7 23.5 0.925
16:27 1022 30.18 851 25.13 23.4 74.1 21 0.1 32.2 23.48 0.924
16:28 1022 30.18 851 25.13 23.4 74.1 26 3.2 37.7 23.57 0.928
16:29 1022 30.18 851 25.13 23.4 74.1 20 -0.3 31.4 23.64 0.931
16:30 1022 30.18 851 25.13 23.5 74.2 27 3.7 38.7 23.55 0.927
16:31 1022 30.18 851 25.13 23.4 74 27 3.6 38.5 23.59 0.929
16:32 1022 30.18 851 25.13 23.2 73.7 28 3.9 38.9 23.57 0.928
16:33 1022 30.18 851 25.13 23 73.5 22 0.3 32.6 23.43 0.922
16:34 1022 30.18 851 25.13 22.9 73.1 23 0.6 33.1 23.29 0.917
16:35 1022 30.18 851 25.13 22.9 73.2 22 0.4 32.8 23.32 0.918
16:36 1022 30.18 851 25.13 23 73.4 23 1.2 34.1 23.39 0.921
16:37 1022 30.18 851 25.13 23.1 73.7 28 3.7 38.6 23.4 0.921
16:38 1022 30.18 851 25.13 23.2 73.8 21 -0.1 31.9 23.48 0.924
16:39 1022 30.18 851 25.13 23.3 73.9 24 1.8 35.2 23.54 0.927
16:40 1022 30.18 851 25.13 23.2 73.8 27 3.6 38.4 23.63 0.93
16:41 1022 30.18 851 25.13 23.1 73.5 22 0.6 33 23.51 0.926
16:42 1022 30.18 851 25.13 23 73.4 31 5.4 41.7 23.4 0.921
16:43 1022 30.18 851 25.13 22.9 73.3 22 0 32 23.33 0.919
16:44 1022 30.18 851 25.13 22.9 73.3 25 1.8 35.3 23.32 0.918
16:45 1022 30.18 851 25.13 22.9 73.3 22 0.2 32.4 23.39 0.921
16:46 1022 30.18 851 25.13 23 73.5 26 2.9 37.2 23.52 0.926
16:47 1022 30.18 851 25.13 23.2 73.7 28 3.8 38.8 23.7 0.933
16:48 1022 30.18 851 25.13 23.1 73.7 30 4.8 40.7 23.66 0.931
16:49 1022 30.18 851 25.13 23 73.5 26 3 37.4 23.57 0.928
16:50 1022 30.18 851 25.13 22.9 73.3 28 3.9 39 23.44 0.923
16:51 1022 30.18 851 25.13 22.9 73.2 31 4.9 40.9 23.33 0.919
16:52 1022 30.18 851 25.13 22.9 73.3 28 3.6 38.5 23.38 0.92
16:53 1022 30.18 851 25.13 23 73.4 26 2.9 37.3 23.48 0.924
16:54 1022 30.18 851 25.13 23.1 73.6 26 2.6 36.6 23.49 0.925
16:55 1022 30.18 851 25.13 23.1 73.6 25 2.5 36.4 23.47 0.924
16:56 1022 30.18 851 25.13 23 73.5 28 3.9 39 23.39 0.921
16:57 1022 30.18 851 25.13 22.9 73.1 26 2.5 36.6 23.2 0.913
16:58 1022 30.18 851 25.13 22.7 72.8 27 3 37.5 23.04 0.907
16:59 1022 30.18 851 25.13 22.6 72.7 26 2.6 36.7 23 0.906
17:00 1022 30.18 851 25.13 22.5 72.6 29 4 39.2 22.92 0.902
17:01 1022 30.18 851 25.13 22.5 72.4 26 2.1 35.8 22.86 0.9
17:02 1022 30.18 851 25.13 22.5 72.4 29 3.9 39 22.84 0.899
17:03 1022 30.18 851 25.13 22.4 72.3 26 1.9 35.5 22.75 0.896
17:04 1022 30.18 851 25.13 22.4 72.2 27 2.7 36.8 22.73 0.895
17:05 1022 30.18 851 25.13 22.3 72.2 29 3.6 38.6 22.71 0.894
17:06 1022 30.18 851 25.13 22.3 72.1 27 2.7 36.9 22.65 0.892
17:07 1022 30.18 851 25.13 22.3 72.1 26 2.3 36.2 22.65 0.892
17:08 1022 30.18 851 25.13 22.3 72.2 28 2.9 37.2 22.73 0.895
17:09 1022 30.18 851 25.13 22.3 72.2 30 4 39.2 22.7 0.894
17:10 1022 30.18 851 25.13 22.3 72.1 26 2.2 35.9 22.66 0.892
17:11 1022 30.18 851 25.13 22.3 72.1 25 1.4 34.5 22.68 0.893
17:12 1022 30.18 851 25.13 22.4 72.3 29 3.7 38.7 22.74 0.895
17:13 1022 30.18 851 25.13 22.4 72.3 26 2.3 36.1 22.85 0.9
17:14 1022 30.18 851 25.13 22.5 72.5 29 3.6 38.5 22.91 0.902
17:15 1022 30.18 851 25.13 22.5 72.4 27 2.6 36.7 22.86 0.9
17:16 1022 30.18 851 25.13 22.4 72.4 32 4.9 40.9 22.84 0.899
17:17 1022 30.18 851 25.13 22.4 72.3 31 4.7 40.4 22.76 0.896
17:18 1022 30.18 851 25.13 22.4 72.3 26 1.9 35.5 22.75 0.896
17:19 1022 30.18 851 25.13 22.4 72.3 30 4.1 39.4 22.77 0.896
17:20 1022 30.18 851 25.13 22.4 72.3 26 2.4 36.3 22.77 0.896
17:21 1022 30.18 851 25.13 22.4 72.3 30 4.4 39.9 22.79 0.897
17:22 1022 30.18 851 25.13 22.5 72.4 31 4.5 40.1 22.81 0.898
17:23 1022 30.18 851 25.13 22.4 72.4 32 5.3 41.5 22.84 0.899
17:24 1022 30.18 851 25.13 22.4 72.3 25 1.6 34.9 22.78 0.897
17:25 1022 30.18 851 25.13 22.5 72.4 30 4.1 39.5 22.83 0.899
17:26 1022 30.18 851 25.13 22.5 72.5 27 2.6 36.7 22.98 0.905
17:27 1022 30.18 851 25.13 22.6 72.6 25 2 35.6 22.99 0.905
17:28 1022 30.18 851 25.13 22.5 72.6 27 3 37.5 22.96 0.904
17:29 1022 30.18 851 25.13 22.5 72.4 30 4.4 39.8 22.85 0.9
17:30 1022 30.18 851 25.13 22.3 72.2 29 3.9 38.9 22.69 0.893
17:31 1022 30.18 851 25.13 22.2 71.9 29 3.4 38.1 22.55 0.888
17:32 1022 30.18 851 25.13 22.1 71.7 24 0.6 33.2 22.42 0.883
17:33 1022 30.18 851 25.13 22.1 71.7 28 3.1 37.6 22.46 0.884
17:34 1022 30.18 851 25.13 22.1 71.7 30 3.7 38.6 22.45 0.884
17:35 1022 30.18 851 25.13 22 71.6 28 2.7 36.8 22.38 0.881
17:36 1022 30.18 851 25.13 22 71.6 32 4.5 40.2 22.39 0.881
17:37 1022 30.18 851 25.13 22 71.6 29 3.4 38 22.4 0.882
17:38 1022 30.18 851 25.13 22 71.7 30 3.7 38.7 22.42 0.883
17:39 1022 30.18 851 25.13 22 71.7 30 3.7 38.7 22.4 0.882
17:40 1022 30.18 851 25.13 22 71.5 31 4.4 39.9 22.36 0.88
17:41 1022 30.18 851 25.13 21.9 71.4 26 1.9 35.4 22.26 0.876
17:42 1022 30.18 851 25.13 21.9 71.3 27 2 35.5 22.23 0.875
17:43 1022 30.18 851 25.13 21.9 71.4 25 1.3 34.4 22.28 0.877
17:44 1022 30.18 851 25.13 21.9 71.4 26 1.5 34.6 22.29 0.878
17:45 1022 30.18 851 25.13 22 71.6 27 2.3 36.1 22.34 0.88
17:46 1022 30.18 851 25.13 22 71.5 25 1.4 34.4 22.32 0.879
17:47 1022 30.18 851 25.13 21.9 71.4 26 1.5 34.7 22.24 0.876
17:48 1022 30.18 851 25.13 21.9 71.4 28 2.8 37.1 22.22 0.875
17:49 1022 30.18 851 25.13 21.8 71.3 24 0.8 33.5 22.2 0.874
17:50 1022 30.18 851 25.13 21.8 71.3 28 2.6 36.6 22.17 0.873
17:51 1022 30.18 851 25.13 21.8 71.2 28 2.7 36.9 22.16 0.872
17:52 1022 30.18 851 25.13 21.8 71.2 27 2.1 35.8 22.13 0.871
17:53 1022 30.18 851 25.13 21.8 71.2 30 3.6 38.6 22.14 0.872
17:54 1022 30.18 851 25.13 21.8 71.2 25 1 33.7 22.11 0.87
17:55 1021 30.15 851 25.13 21.8 71.3 25 0.9 33.6 22.15 0.872
17:56 1022 30.18 851 25.13 21.8 71.2 28 2.6 36.8 22.16 0.872
17:57 1022 30.18 851 25.13 21.7 71.1 28 2.7 36.9 22.07 0.869
17:58 1022 30.18 851 25.13 21.6 70.8 30 3.6 38.5 21.97 0.865
17:59 1021 30.15 851 25.13 21.5 70.7 29 2.7 36.8 21.86 0.861
18:00 1022 30.18 851 25.13 21.4 70.5 31 3.7 38.6 21.75 0.856
18:01 1021 30.15 851 25.13 21.3 70.4 31 3.6 38.5 21.71 0.855
18:02 1022 30.18 851 25.13 21.3 70.3 32 4.1 39.4 21.71 0.855
18:03 1021 30.15 851 25.13 21.3 70.3 32 3.9 39.1 21.64 0.852
18:04 1021 30.15 851 25.13 21.2 70.2 32 4.2 39.6 21.61 0.851
18:05 1021 30.15 851 25.13 21.2 70.2 33 4.7 40.4 21.62 0.851
18:06 1022 30.18 851 25.13 21.2 70.2 33 4.3 39.7 21.63 0.852
18:07 1022 30.18 851 25.13 21.3 70.3 33 4.4 40 21.66 0.853
18:08 1022 30.18 851 25.13 21.3 70.3 30 3.4 38.1 21.61 0.851
18:09 1022 30.18 851 25.13 21.3 70.4 33 4.5 40 21.66 0.853
18:10 1022 30.18 851 25.13 21.4 70.4 32 4.3 39.7 21.63 0.852
18:11 1021 30.15 851 25.13 21.4 70.4 34 4.8 40.7 21.56 0.849
18:12 1021 30.15 851 25.13 21.4 70.4 36 5.9 42.6 21.54 0.848
18:13 1021 30.15 851 25.13 21.3 70.4 35 5.5 41.9 21.51 0.847
18:14 1021 30.15 851 25.13 21.3 70.4 35 5.3 41.6 21.5 0.846
18:15 1021 30.15 851 25.13 21.4 70.5 33 4.4 40 21.4 0.843
18:16 1021 30.15 851 25.13 21.4 70.6 30 3.1 37.6 21.46 0.845
18:17 1021 30.15 851 25.13 21.6 70.8 29 2.9 37.2 21.54 0.848
18:18 1021 30.15 851 25.13 21.6 70.9 30 3.3 38 21.63 0.852
18:19 1021 30.15 851 25.13 21.6 70.9 27 2 35.6 21.65 0.852
18:20 1021 30.15 851 25.13 21.7 71.1 28 2.4 36.4 21.72 0.855
18:21 1021 30.15 851 25.13 21.8 71.2 32 4.4 39.8 21.82 0.859
18:22 1021 30.15 851 25.13 21.8 71.3 32 4.5 40 21.83 0.859
18:23 1021 30.15 851 25.13 21.9 71.4 32 4.6 40.3 21.8 0.858
18:24 1021 30.15 851 25.13 21.9 71.4 31 4 39.2 21.71 0.855
18:25 1021 30.15 851 25.13 21.8 71.2 29 3.3 38 21.6 0.85
18:26 1021 30.15 851 25.13 21.7 71 29 2.8 37.1 21.52 0.847
18:27 1021 30.15 851 25.13 21.6 70.9 28 2.3 36.2 21.47 0.845
18:28 1021 30.15 851 25.13 21.6 70.8 29 2.9 37.3 21.47 0.845
18:29 1021 30.15 851 25.13 21.6 70.8 29 2.9 37.3 21.52 0.847
18:30 1021 30.15 851 25.13 21.5 70.7 31 4 39.2 21.5 0.846
18:31 1021 30.15 851 25.13 21.4 70.6 31 3.7 38.7 21.34 0.84
18:32 1021 30.15 851 25.13 21.3 70.3 29 2.8 37 21.22 0.835
18:33 1021 30.15 851 25.13 21.2 70.1 30 3.3 38 21.17 0.833
18:34 1021 30.15 851 25.13 21.1 70 31 3.6 38.5 21.11 0.831
18:35 1021 30.15 851 25.13 21.1 69.9 33 4.2 39.6 21.08 0.83
18:36 1021 30.15 851 25.13 21 69.9 33 4.4 39.9 21.09 0.83
18:37 1021 30.15 851 25.13 21.1 69.9 31 3.4 38.1 21.11 0.831
18:38 1021 30.15 851 25.13 21.1 69.9 30 3 37.4 21.07 0.83
18:39 1021 30.15 851 25.13 21.1 70 30 3.1 37.7 21.11 0.831
18:40 1021 30.15 851 25.13 21.1 69.9 32 3.7 38.7 21.1 0.831
18:41 1021 30.15 851 25.13 21.1 69.9 31 3.4 38.1 21.1 0.831
18:42 1021 30.15 851 25.13 21.1 70 29 2.5 36.5 21.09 0.83
18:43 1021 30.15 851 25.13 21.2 70.1 33 4.2 39.6 21.09 0.83
18:44 1021 30.15 851 25.13 21.2 70.1 31 3.7 38.6 21.06 0.829
18:45 1021 30.15 851 25.13 21.2 70.2 31 3.5 38.3 21.1 0.831
18:46 1021 30.15 851 25.13 21.3 70.4 29 3 37.4 21.18 0.834
18:47 1021 30.15 851 25.13 21.4 70.6 30 3.2 37.8 21.29 0.838
18:48 1021 30.15 851 25.13 21.5 70.7 27 2.1 35.8 21.34 0.84
18:49 1021 30.15 851 25.13 21.5 70.6 29 2.9 37.3 21.36 0.841
18:50 1021 30.15 851 25.13 21.5 70.7 30 3.4 38.2 21.4 0.843
18:51 1021 30.15 851 25.13 21.5 70.6 28 2.6 36.7 21.45 0.844
18:52 1021 30.15 851 25.13 21.5 70.7 29 3 37.4 21.49 0.846
18:53 1021 30.15 851 25.13 21.6 70.8 29 2.8 37 21.57 0.849
18:54 1021 30.15 851 25.13 21.6 70.8 30 3.5 38.2 21.57 0.849
18:55 1021 30.15 851 25.13 21.4 70.6 30 3.2 37.7 21.45 0.844
18:56 1021 30.15 851 25.13 21.3 70.4 27 1.8 35.3 21.44 0.844
18:57 1021 30.15 851 25.13 21.3 70.3 30 3 37.4 21.4 0.843
18:58 1021 30.15 851 25.13 21.2 70.2 29 2.7 36.8 21.35 0.841
18:59 1021 30.15 851 25.13 21.2 70.1 29 2.6 36.6 21.32 0.839
19:00 1021 30.15 851 25.13 21.1 70 28 2.3 36.1 21.25 0.837
19:01 1021 30.15 851 25.13 21 69.8 28 2.2 35.9 21.17 0.833
19:02 1021 30.15 851 25.13 21 69.7 30 2.8 37 21.15 0.833
19:03 1021 30.15 851 25.13 20.9 69.5 30 2.8 37.1 21.1 0.831
19:04 1021 30.15 851 25.13 20.7 69.3 31 3 37.3 21.1 0.831
19:05 1021 30.15 851 25.13 20.5 68.9 30 2.7 36.8 21 0.827
19:06 1021 30.15 851 25.13 20.2 68.4 36 4.7 40.5 20.79 0.819
19:07 1021 30.15 851 25.13 19.9 67.8 40 6.1 43.1 20.39 0.803
19:08 1021 30.15 851 25.13 19.6 67.4 39 5.4 41.8 20.09 0.791
19:09 1021 30.15 851 25.13 19.3 66.7 44 7 44.5 19.67 0.774
19:10 1021 30.15 851 25.13 18.9 65.9 44 6.4 43.6 19.25 0.758
19:11 1021 30.15 851 25.13 18.8 65.8 34 2.6 36.6 19.07 0.751
19:12 1021 30.15 851 25.13 19 66.2 41 5.7 42.2 19.29 0.759
19:13 1021 30.15 851 25.13 18.8 65.9 36 3.5 38.2 19.18 0.755
19:14 1021 30.15 851 25.13 18.8 65.8 33 2.3 36.2 19.09 0.752
19:15 1021 30.15 851 25.13 19 66.2 40 5.2 41.4 19.3 0.76
19:16 1021 30.15 851 25.13 19 66.1 34 3.1 37.5 19.28 0.759
19:17 1021 30.15 851 25.13 19 66.2 32 2.2 36 19.26 0.758
19:18 1021 30.15 851 25.13 19.2 66.5 32 2.2 36 19.46 0.766
19:19 1021 30.15 851 25.13 19.3 66.7 35 3.6 38.6 19.58 0.771
19:20 1021 30.15 851 25.13 19 66.3 37 4.3 39.7 19.36 0.762
19:21 1021 30.15 851 25.13 18.6 65.5 42 5.7 42.3 18.95 0.746
19:22 1021 30.15 851 25.13 18 64.4 45 6 42.9 18.33 0.722
19:23 1021 30.15 851 25.13 17.4 63.3 49 6.7 44 17.65 0.695
19:24 1021 30.15 851 25.13 16.7 62.1 53 7.1 44.7 16.92 0.666
19:25 1021 30.15 851 25.13 16 60.8 54 6.7 44 16.25 0.64
19:26 1021 30.15 851 25.13 15.5 60 55 6.6 43.9 15.86 0.624
19:27 1021 30.15 851 25.13 15.1 59.1 55 6.1 43 15.5 0.61
19:28 1021 30.15 851 25.13 14.9 58.8 55 6.1 42.9 15.36 0.605
19:29 1021 30.15 851 25.13 14.9 58.7 57 6.4 43.6 15.23 0.6
19:30 1021 30.15 851 25.13 14.7 58.4 57 6.4 43.4 15.08 0.594
19:31 1021 30.15 851 25.13 14.5 58.1 58 6.5 43.7 14.9 0.587
19:32 1021 30.15 851 25.13 14.3 57.8 60 6.8 44.2 14.65 0.577
19:33 1021 30.15 851 25.13 13.9 57.1 62 6.8 44.3 14.3 0.563
19:34 1021 30.15 851 25.13 13.5 56.3 63 6.8 44.2 13.88 0.546
19:35 1021 30.15 851 25.13 13.2 55.8 64 6.6 44 13.52 0.532
19:36 1021 30.15 851 25.13 12.9 55.3 65 6.5 43.7 13.29 0.523
19:37 1021 30.15 851 25.13 12.7 54.9 65 6.5 43.7 13.09 0.515
19:38 1021 30.15 851 25.13 12.4 54.4 66 6.4 43.5 12.81 0.504
19:39 1021 30.15 851 25.13 12.3 54.1 67 6.3 43.3 12.62 0.497
19:40 1021 30.15 851 25.13 12.1 53.9 67 6.2 43.2 12.5 0.492
19:41 1021 30.15 851 25.13 12.1 53.8 66 6 42.8 12.45 0.49
19:42 1021 30.15 851 25.13 12.1 53.9 66 6 42.8 12.49 0.492
19:43 1021 30.15 851 25.13 12.2 53.9 66 6 42.8 12.56 0.494
19:44 1021 30.15 851 25.13 12.3 54.1 65 5.9 42.6 12.61 0.496
19:45 1021 30.15 851 25.13 12.4 54.3 63 5.7 42.3 12.76 0.502
19:46 1021 30.15 851 25.13 12.6 54.6 62 5.6 42 12.91 0.508
19:47 1021 30.15 851 25.13 12.7 54.9 60 5.2 41.4 13.07 0.515
19:48 1021 30.15 851 25.13 13 55.4 60 5.4 41.7 13.31 0.524
19:49 1021 30.15 851 25.13 13.1 55.5 60 5.5 41.9 13.36 0.526
19:50 1021 30.15 851 25.13 13 55.4 61 5.7 42.2 13.36 0.526
19:51 1021 30.15 851 25.13 12.9 55.2 61 5.5 41.9 13.22 0.52
19:52 1021 30.15 851 25.13 12.8 55 61 5.5 42 13.18 0.519
19:53 1021 30.15 851 25.13 12.7 54.9 61 5.5 41.9 13.05 0.514
19:54 1021 30.15 851 25.13 12.6 54.6 61 5.3 41.5 12.98 0.511
19:55 1021 30.15 851 25.13 12.5 54.5 62 5.5 41.9 12.85 0.506
19:56 1021 30.15 851 25.13 12.4 54.3 62 5.4 41.7 12.73 0.501
19:57 1021 30.15 851 25.13 12.2 54 63 5.4 41.8 12.63 0.497
19:58 1021 30.15 851 25.13 12.2 53.9 63 5.3 41.6 12.53 0.493
19:59 1021 30.15 851 25.13 12.1 53.8 63 5.3 41.6 12.45 0.49
20:00 1022 30.18 851 25.13 12 53.6 63 5.3 41.5 12.4 0.488
20:01 1021 30.15 851 25.13 12 53.6 63 5.2 41.4 12.35 0.486
20:02 1021 30.15 851 25.13 12 53.5 63 5.3 41.5 12.33 0.485
20:03 1021 30.15 851 25.13 11.9 53.5 63 5.2 41.4 12.27 0.483
20:04 1021 30.15 851 25.13 11.9 53.4 64 5.3 41.5 12.22 0.481
20:05 1021 30.15 851 25.13 11.8 53.3 64 5.3 41.5 12.17 0.479
20:06 1022 30.18 851 25.13 11.7 53.1 64 5.3 41.5 12.05 0.474
20:07 1022 30.18 851 25.13 11.6 52.9 64 5.2 41.3 11.99 0.472
20:08 1022 30.18 851 25.13 11.5 52.8 65 5.2 41.4 11.89 0.468
20:09 1022 30.18 851 25.13 11.4 52.6 65 5.1 41.2 11.83 0.466
20:10 1022 30.18 851 25.13 11.5 52.6 64 5 41 11.86 0.467
20:11 1022 30.18 851 25.13 11.5 52.6 64 5 41.1 11.86 0.467
20:12 1022 30.18 851 25.13 11.5 52.7 64 5 41.1 11.9 0.469
20:13 1022 30.18 851 25.13 11.5 52.7 64 5 41.1 11.87 0.467
20:14 1022 30.18 851 25.13 11.4 52.6 65 5.2 41.3 11.8 0.465
20:15 1022 30.18 851 25.13 11.3 52.3 66 5.2 41.4 11.67 0.459
20:16 1022 30.18 851 25.13 11.1 52 67 5.2 41.3 11.49 0.452
20:17 1022 30.18 851 25.13 11 51.7 67 5.1 41.2 11.34 0.446
20:18 1022 30.18 851 25.13 10.9 51.5 67 5.1 41.1 11.23 0.442
20:19 1022 30.18 851 25.13 10.8 51.4 67 5 41 11.15 0.439
20:20 1022 30.18 851 25.13 10.7 51.3 67 4.9 40.9 11.11 0.437
20:21 1022 30.18 851 25.13 10.7 51.2 67 4.9 40.8 11.04 0.435
20:22 1022 30.18 851 25.13 10.6 51.2 67 4.8 40.7 11.04 0.435
20:23 1022 30.18 851 25.13 10.6 51.1 67 4.8 40.7 10.99 0.433
20:24 1022 30.18 851 25.13 10.6 51 67 4.8 40.6 10.94 0.431
20:25 1022 30.18 851 25.13 10.5 50.9 68 4.8 40.7 10.91 0.43
20:26 1022 30.18 851 25.13 10.5 50.8 68 4.9 40.8 10.89 0.429
20:27 1022 30.18 851 25.13 10.4 50.7 69 4.9 40.8 10.77 0.424
20:28 1022 30.18 851 25.13 10.3 50.5 68 4.7 40.5 10.65 0.419
20:29 1022 30.18 851 25.13 10.3 50.5 69 4.8 40.7 10.61 0.418
20:30 1022 30.18 851 25.13 10.1 50.2 69 4.8 40.6 10.51 0.414
20:31 1022 30.18 851 25.13 10.1 50.1 70 4.8 40.6 10.4 0.409
20:32 1022 30.18 851 25.13 9.9 49.8 70 4.7 40.5 10.3 0.406
20:33 1022 30.18 851 25.13 9.8 49.6 70 4.6 40.3 10.21 0.402
20:34 1022 30.18 851 25.13 9.8 49.6 70 4.6 40.3 10.1 0.398
20:35 1022 30.18 851 25.13 9.7 49.4 70 4.6 40.2 10.07 0.396
20:36 1022 30.18 851 25.13 9.7 49.4 71 4.6 40.3 10.04 0.395
20:37 1022 30.18 851 25.13 9.6 49.2 71 4.6 40.3 9.94 0.391
20:38 1022 30.18 851 25.13 9.4 49 72 4.6 40.3 9.82 0.387
20:39 1022 30.18 851 25.13 9.3 48.7 72 4.6 40.3 9.68 0.381
20:40 1022 30.18 851 25.13 9.2 48.6 73 4.6 40.3 9.6 0.378
20:41 1022 30.18 851 25.13 9.2 48.5 73 4.6 40.3 9.55 0.376
20:42 1022 30.18 851 25.13 9.2 48.5 72 4.4 40 9.53 0.375
20:43 1022 30.18 851 25.13 9.2 48.6 71 4.3 39.8 9.63 0.379
20:44 1022 30.18 851 25.13 9.3 48.8 70 4.3 39.7 9.71 0.382
20:45 1022 30.18 851 25.13 9.5 49 69 4.2 39.5 9.85 0.388
20:46 1022 30.18 851 25.13 9.7 49.4 69 4.2 39.6 10.01 0.394
20:47 1022 30.18 851 25.13 9.8 49.6 68 4.2 39.6 10.12 0.398
20:48 1022 30.18 851 25.13 9.8 49.6 68 4.2 39.6 10.15 0.4
20:49 1022 30.18 851 25.13 9.8 49.7 67 4 39.2 10.17 0.4
20:50 1022 30.18 851 25.13 10 49.9 65 3.8 38.9 10.33 0.407
20:51 1022 30.18 851 25.13 10.2 50.4 64 3.7 38.7 10.51 0.414
20:52 1022 30.18 851 25.13 10.3 50.6 64 3.8 38.9 10.71 0.422
20:53 1022 30.18 851 25.13 10.3 50.6 65 4.1 39.3 10.67 0.42
20:54 1022 30.18 851 25.13 10.2 50.3 66 4.1 39.4 10.51 0.414
20:55 1022 30.18 851 25.13 10 50.1 67 4.2 39.6 10.37 0.408
20:56 1022 30.18 851 25.13 9.8 49.6 67 4.1 39.3 10.06 0.396
20:57 1022 30.18 851 25.13 9.7 49.4 66 3.7 38.7 10.01 0.394
20:58 1022 30.18 851 25.13 9.8 49.6 66 3.8 38.9 10.14 0.399
20:59 1022 30.18 851 25.13 9.9 49.7 66 3.8 38.9 10.22 0.402
21:00 1022 30.18 851 25.13 10 49.9 66 3.9 39 10.29 0.405
21:01 1022 30.18 851 25.13 10.2 50.3 65 4 39.2 10.46 0.412
21:02 1022 30.18 851 25.13 10.3 50.5 65 4 39.2 10.58 0.417
21:03 1022 30.18 851 25.13 10.5 50.8 63 3.9 39 10.79 0.425
21:04 1022 30.18 851 25.13 10.8 51.4 62 3.9 39 11.09 0.437
21:05 1022 30.18 851 25.13 11 51.8 62 4 39.2 11.33 0.446
21:06 1022 30.18 851 25.13 11.2 52.1 62 4.2 39.5 11.44 0.45
21:07 1022 30.18 851 25.13 11.3 52.3 62 4.3 39.7 11.49 0.452
21:08 1022 30.18 851 25.13 11.2 52.2 62 4.3 39.8 11.5 0.453
21:09 1022 30.18 851 25.13 11.1 52 63 4.3 39.8 11.41 0.449
21:10 1022 30.18 851 25.13 11 51.8 63 4.3 39.8 11.33 0.446
21:11 1022 30.18 851 25.13 10.9 51.6 64 4.3 39.8 11.24 0.443
21:12 1022 30.18 851 25.13 10.9 51.6 64 4.3 39.7 11.18 0.44
21:13 1022 30.18 851 25.13 10.8 51.5 64 4.2 39.6 11.19 0.441
21:14 1022 30.18 851 25.13 10.8 51.5 63 4.1 39.4 11.18 0.44
21:15 1022 30.18 851 25.13 10.9 51.5 63 4.2 39.6 11.16 0.439
21:16 1022 30.18 851 25.13 10.8 51.4 63 4.1 39.4 11.12 0.438
21:17 1022 30.18 851 25.13 10.7 51.3 63 4 39.1 11.04 0.435
21:18 1022 30.18 851 25.13 10.7 51.3 63 3.9 39.1 11.03 0.434
21:19 1022 30.18 851 25.13 10.7 51.3 62 3.9 39 11.03 0.434
21:20 1022 30.18 851 25.13 10.7 51.3 62 3.8 38.8 11.04 0.435
21:21 1022 30.18 851 25.13 10.7 51.3 62 3.8 38.8 11.07 0.436
21:22 1022 30.18 851 25.13 10.8 51.4 61 3.7 38.7 11.1 0.437
21:23 1022 30.18 851 25.13 11 51.7 61 3.7 38.6 11.26 0.443
21:24 1022 30.18 851 25.13 11.1 52 59 3.5 38.3 11.49 0.452
21:25 1022 30.18 851 25.13 11.4 52.6 58 3.6 38.5 11.77 0.463
21:26 1022 30.18 851 25.13 11.6 52.9 58 3.7 38.7 11.88 0.468
21:27 1022 30.18 851 25.13 11.6 52.8 58 3.7 38.6 11.86 0.467
21:28 1022 30.18 851 25.13 11.5 52.6 58 3.6 38.4 11.75 0.463
21:29 1022 30.18 851 25.13 11.4 52.6 59 3.7 38.7 11.72 0.461
21:30 1022 30.18 851 25.13 11.3 52.4 60 3.8 38.8 11.61 0.457
21:31 1022 30.18 851 25.13 11.2 52.1 61 3.9 39 11.47 0.452
21:32 1022 30.18 851 25.13 11 51.7 62 3.9 39.1 11.27 0.444
21:33 1022 30.18 851 25.13 10.7 51.3 62 3.7 38.7 11.08 0.436
21:34 1022 30.18 851 25.13 10.6 51.1 62 3.6 38.5 10.96 0.431
21:35 1022 30.18 851 25.13 10.6 51.1 61 3.4 38.1 11 0.433
21:36 1022 30.18 851 25.13 10.7 51.3 59 3.2 37.7 11.18 0.44
21:37 1022 30.18 851 25.13 11 51.9 58 3.2 37.7 11.39 0.448
21:38 1022 30.18 851 25.13 11.3 52.4 57 3.1 37.7 11.59 0.456
21:39 1022 30.18 851 25.13 11.3 52.4 57 3.2 37.8 11.68 0.46
21:40 1022 30.18 851 25.13 11.3 52.4 58 3.3 38 11.61 0.457
21:41 1022 30.18 851 25.13 11.4 52.4 56 3.1 37.5 11.65 0.459
21:42 1022 30.18 851 25.13 11.5 52.7 55 2.9 37.2 11.79 0.464
21:43 1022 30.18 851 25.13 11.8 53.2 53 2.6 36.7 12.15 0.478
21:44 1022 30.18 851 25.13 12.2 53.9 53 2.9 37.2 12.47 0.491
21:45 1022 30.18 851 25.13 12.3 54.2 52 2.8 37 12.65 0.498
21:46 1022 30.18 851 25.13 12.6 54.7 52 2.9 37.3 12.87 0.507
21:47 1022 30.18 851 25.13 12.7 54.8 51 2.9 37.3 12.98 0.511
21:48 1022 30.18 851 25.13 12.7 54.9 51 2.9 37.2 13.05 0.514
21:49 1022 30.18 851 25.13 12.7 54.9 51 2.8 37.1 13.05 0.514
21:50 1022 30.18 851 25.13 12.9 55.1 50 2.7 36.8 13.14 0.517
21:51 1022 30.18 851 25.13 12.8 55.1 50 2.7 36.8 13.15 0.518
21:52 1022 30.18 851 25.13 12.8 55.1 50 2.6 36.7 13.15 0.518
21:53 1022 30.18 851 25.13 12.8 55 51 2.9 37.3 13.08 0.515
21:54 1022 30.18 851 25.13 12.7 54.8 51 2.9 37.3 12.99 0.511
21:55 1022 30.18 851 25.13 12.6 54.6 51 2.7 36.9 12.84 0.506
21:56 1022 30.18 851 25.13 12.5 54.4 51 2.7 36.9 12.83 0.505
21:57 1022 30.18 851 25.13 12.4 54.3 52 3 37.4 12.71 0.5
21:58 1022 30.18 851 25.13 12.3 54.1 53 3.1 37.6 12.58 0.495
21:59 1022 30.18 851 25.13 12.1 53.8 54 3.2 37.8 12.47 0.491
22:00 1022 30.18 851 25.13 11.9 53.4 55 3.2 37.8 12.2 0.48
22:01 1022 30.18 851 25.13 11.7 53 55 3.1 37.6 12.08 0.476
22:02 1022 30.18 851 25.13 11.5 52.8 55 3 37.4 11.93 0.47
22:03 1022 30.18 851 25.13 11.5 52.8 54 2.7 36.9 11.96 0.471
22:04 1022 30.18 851 25.13 11.9 53.4 52 2.4 36.2 12.28 0.483
22:05 1022 30.18 851 25.13 12.4 54.3 51 2.5 36.5 12.76 0.502
22:06 1022 30.18 851 25.13 12.6 54.7 51 2.8 37 12.94 0.509
22:07 1022 30.18 851 25.13 12.7 54.8 51 2.8 37 13.02 0.513
22:08 1022 30.18 851 25.13 12.6 54.7 51 2.9 37.3 12.98 0.511
22:09 1022 30.18 851 25.13 12.5 54.4 52 2.8 37.1 12.87 0.507
22:10 1022 30.18 851 25.13 12.3 54.2 52 2.9 37.2 12.71 0.5
22:11 1022 30.18 851 25.13 12.2 53.9 52 2.8 37 12.54 0.494
22:12 1022 30.18 851 25.13 12.1 53.7 52 2.7 36.8 12.46 0.491
22:13 1022 30.18 851 25.13 12 53.7 53 2.8 37 12.4 0.488
22:14 1022 30.18 851 25.13 12 53.5 53 2.7 36.8 12.35 0.486
22:15 1022 30.18 851 25.13 11.9 53.4 52 2.5 36.5 12.26 0.483
22:16 1022 30.18 851 25.13 11.9 53.4 52 2.5 36.5 12.27 0.483
22:17 1022 30.18 851 25.13 12 53.6 52 2.4 36.4 12.32 0.485
22:18 1022 30.18 851 25.13 12.1 53.8 51 2.4 36.3 12.51 0.493
22:19 1022 30.18 851 25.13 12.3 54.1 52 2.7 36.8 12.58 0.495
22:20 1022 30.18 851 25.13 12.3 54.1 51 2.4 36.4 12.57 0.495
22:21 1022 30.18 851 25.13 12.3 54.1 50 2.3 36.2 12.64 0.498
22:22 1022 30.18 851 25.13 12.4 54.3 51 2.6 36.7 12.77 0.503
22:23 1022 30.18 851 25.13 12.4 54.3 51 2.7 36.9 12.68 0.499
22:24 1022 30.18 851 25.13 12.3 54.1 52 2.7 36.8 12.65 0.498
22:25 1022 30.18 851 25.13 12.3 54.1 51 2.5 36.6 12.61 0.496
22:26 1022 30.18 851 25.13 12.3 54.2 52 2.8 37 12.61 0.496
22:27 1022 30.18 851 25.13 12.2 54 51 2.5 36.6 12.53 0.493
22:28 1022 30.18 851 25.13 12.3 54.1 52 2.8 37 12.59 0.496
22:29 1022 30.18 851 25.13 12.2 54 52 2.7 36.9 12.57 0.495
22:30 1022 30.18 851 25.13 12.2 53.9 53 2.9 37.3 12.51 0.493
22:31 1022 30.18 851 25.13 12 53.7 53 2.7 36.9 12.39 0.488
22:32 1022 30.18 851 25.13 11.9 53.5 53 2.7 36.8 12.31 0.485
22:33 1022 30.18 851 25.13 11.9 53.3 54 2.8 37 12.25 0.482
22:34 1022 30.18 851 25.13 11.7 53 54 2.7 36.8 12.08 0.476
22:35 1022 30.18 851 25.13 11.7 53 53 2.5 36.5 12.06 0.475
22:36 1022 30.18 851 25.13 11.8 53.3 52 2.4 36.3 12.14 0.478
22:37 1022 30.18 851 25.13 11.8 53.3 53 2.5 36.5 12.16 0.479
22:38 1022 30.18 851 25.13 11.8 53.2 52 2.2 36 12.13 0.478
22:39 1022 30.18 851 25.13 11.9 53.3 52 2.4 36.4 12.18 0.48
22:40 1022 30.18 851 25.13 11.9 53.4 53 2.6 36.6 12.2 0.48
22:41 1022 30.18 851 25.13 11.8 53.3 53 2.6 36.7 12.13 0.478
22:42 1022 30.18 851 25.13 11.7 53.1 54 2.7 36.8 12.06 0.475
22:43 1022 30.18 851 25.13 11.7 53 53 2.5 36.5 11.99 0.472
22:44 1022 30.18 851 25.13 11.7 53 53 2.3 36.2 12 0.472
22:45 1022 30.18 851 25.13 11.6 52.9 53 2.4 36.4 11.94 0.47
22:46 1022 30.18 851 25.13 11.6 52.9 53 2.4 36.3 11.93 0.47
22:47 1022 30.18 851 25.13 11.6 52.9 54 2.6 36.7 11.93 0.47
22:48 1022 30.18 851 25.13 11.4 52.5 55 2.6 36.8 11.71 0.461
22:49 1022 30.18 851 25.13 11.3 52.4 55 2.6 36.7 11.68 0.46
22:50 1022 30.18 851 25.13 11.2 52.2 55 2.6 36.8 11.56 0.455
22:51 1022 30.18 851 25.13 11.1 52 55 2.5 36.6 11.5 0.453
22:52 1022 30.18 851 25.13 11 51.8 55 2.4 36.3 11.35 0.447
22:53 1022 30.18 851 25.13 11 51.8 55 2.4 36.3 11.3 0.445
22:54 1022 30.18 851 25.13 10.8 51.5 56 2.5 36.4 11.17 0.44
22:55 1022 30.18 851 25.13 10.8 51.4 55 2.2 35.9 11.12 0.438
22:56 1022 30.18 851 25.13 10.9 51.6 55 2.1 35.9 11.23 0.442
22:57 1022 30.18 851 25.13 11 51.7 54 2.2 35.9 11.27 0.444
22:58 1022 30.18 851 25.13 11 51.7 54 2 35.6 11.29 0.444
22:59 1022 30.18 851 25.13 11.1 52 52 1.7 35.1 11.43 0.45
23:00 1022 30.18 851 25.13 11.4 52.4 53 2.1 35.7 11.66 0.459
23:01 1022 30.18 851 25.13 11.4 52.6 51 1.8 35.3 11.72 0.461
23:02 1022 30.18 851 25.13 11.6 52.8 51 2 35.5 11.85 0.467
23:03 1022 30.18 851 25.13 11.6 52.8 52 2.2 36 11.88 0.468
23:04 1022 30.18 851 25.13 11.5 52.6 53 2.2 36 11.81 0.465
23:05 1022 30.18 851 25.13 11.3 52.3 54 2.3 36.2 11.62 0.457
23:06 1022 30.18 851 25.13 11.1 51.9 54 2.1 35.7 11.42 0.45
23:07 1022 30.18 851 25.13 11.1 51.9 53 1.9 35.4 11.42 0.45
23:08 1022 30.18 851 25.13 11.2 52.1 52 1.8 35.3 11.48 0.452
23:09 1022 30.18 851 25.13 11.3 52.3 52 1.9 35.4 11.57 0.456
23:10 1022 30.18 851 25.13 11.3 52.3 52 1.9 35.4 11.61 0.457
23:11 1022 30.18 851 25.13 11.2 52.2 53 2.1 35.8 11.54 0.454
23:12 1022 30.18 851 25.13 11.2 52.1 52 1.9 35.4 11.5 0.453
23:13 1022 30.18 851 25.13 11.2 52.1 52 1.9 35.4 11.47 0.452
23:14 1022 30.18 851 25.13 11.2 52.1 52 1.7 35 11.46 0.451
23:15 1022 30.18 851 25.13 11.2 52.2 52 1.8 35.2 11.46 0.451
23:16 1022 30.18 851 25.13 11 51.8 54 2.1 35.7 11.31 0.445
23:17 1022 30.18 851 25.13 10.7 51.3 54 1.8 35.2 11.01 0.433
23:18 1022 30.18 851 25.13 10.7 51.2 55 2 35.5 10.9 0.429
23:19 1022 30.18 851 25.13 10.5 50.8 55 1.8 35.3 10.7 0.421
23:20 1022 30.18 851 25.13 10.4 50.7 54 1.6 34.8 10.71 0.422
23:21 1022 30.18 851 25.13 10.6 51 54 1.6 35 10.93 0.43
23:22 1022 30.18 851 25.13 10.6 51.1 53 1.6 34.9 10.94 0.431
23:23 1022 30.18 851 25.13 10.7 51.2 54 1.7 35.1 10.95 0.431
23:24 1022 30.18 851 25.13 10.6 51.1 53 1.6 34.8 10.89 0.429
23:25 1022 30.18 851 25.13 10.6 51.1 54 1.7 35.1 10.93 0.43
23:26 1022 30.18 851 25.13 10.6 51 55 2 35.5 10.95 0.431
23:27 1022 30.18 851 25.13 10.4 50.8 57 2.2 36 10.75 0.423
23:28 1022 30.18 851 25.13 10 50 58 2.1 35.8 10.35 0.407
23:29 1022 30.18 851 25.13 9.8 49.6 58 2 35.7 10.1 0.398
23:30 1022 30.18 851 25.13 9.6 49.2 60 2.2 35.9 9.92 0.391
23:31 1022 30.18 851 25.13 9.3 48.8 59 1.8 35.3 9.75 0.384
23:32 1022 30.18 851 25.13 9.5 49 59 1.8 35.2 9.81 0.386
23:33 1022 30.18 851 25.13 9.7 49.4 57 1.7 35 9.97 0.393
23:34 1022 30.18 851 25.13 9.9 49.7 58 2 35.6 10.1 0.398
23:35 1022 30.18 851 25.13 9.7 49.5 59 2 35.7 9.9 0.39
23:36 1022 30.18 851 25.13 9.5 49 59 1.8 35.2 9.77 0.385
23:37 1022 30.18 851 25.13 9.5 49.1 58 1.7 35 9.8 0.386
23:38 1022 30.18 851 25.13 9.7 49.5 56 1.5 34.7 10.04 0.395
23:39 1022 30.18 851 25.13 10.1 50.2 55 1.6 34.8 10.34 0.407
23:40 1022 30.18 851 25.13 10.4 50.6 55 1.8 35.3 10.6 0.417
23:41 1022 30.18 851 25.13 10.4 50.8 56 1.9 35.5 10.62 0.418
23:42 1022 30.18 851 25.13 10.4 50.6 56 1.9 35.4 10.62 0.418
23:43 1022 30.18 851 25.13 10.3 50.6 56 2.1 35.7 10.62 0.418
23:44 1022 30.18 851 25.13 10.2 50.3 57 2.1 35.8 10.5 0.413
23:45 1022 30.18 851 25.13 10 49.9 58 2.2 36 10.32 0.406
23:46 1022 30.18 851 25.13 9.8 49.6 59 2.2 35.9 10.14 0.399
23:47 1022 30.18 851 25.13 9.8 49.6 58 2 35.6 10.04 0.395
23:48 1022 30.18 851 25.13 9.8 49.7 58 2 35.6 10.08 0.397
23:49 1022 30.18 851 25.13 9.8 49.6 58 1.9 35.4 10.07 0.396
23:50 1022 30.18 851 25.13 9.7 49.5 59 2.1 35.8 10.03 0.395
23:51 1022 30.18 851 25.13 9.5 49.2 60 2.2 36 9.81 0.386
23:52 1022 30.18 851 25.13 9.3 48.7 61 2.1 35.7 9.58 0.377
23:53 1022 30.18 851 25.13 9.1 48.5 61 1.9 35.5 9.42 0.371
23:54 1022 30.18 851 25.13 9.1 48.4 61 2.1 35.7 9.39 0.37
23:55 1022 30.18 851 25.13 9.1 48.3 62 2.1 35.8 9.29 0.366
23:56 1022 30.18 851 25.13 8.9 48 61 1.8 35.3 9.21 0.363
23:57 1022 30.18 851 25.13 9 48.2 61 1.9 35.4 9.22 0.363
23:58 1022 30.18 851 25.13 9 48.2 61 1.8 35.3 9.25 0.364
23:59 1022 30.18 851 25.13 9.2 48.5 59 1.6 34.9 9.4 0.37
24:00 1022 30.18 851 25.13 9.4 49 58 1.7 35.1 9.63 0.379